AAR541 RKSI-EDDF
Flight info
| Callsign | AAR541 |
|---|---|
| Flight time | N/A |
| Altitude | 32000 |
| Route | NOPIK2Y NOPIK Y697 AGAVO A591 IKEKA W4 HCH W200 DOVIV W55 PAMRU W34 LADIX B339 ASILA A575 UPREK W28 LAGEB W66 NUKTI B215 KABDO W119 GOBOK A343 RULAD M610 ARBOL Z621 ELAHA N147 OTBOR A480 TIMGA B476 METKA L88 RASAM N199 LUSAL M11 REBLO UM11 CRM UL746 ODERO DCT LUGEB DCT TEGRI DCT ARSIN DCT SUBEN DCT AKINI T161 DEBHI DEBHI1B |
| Aircraft | B744/H-SDE1E2E3FGHIJ3J5M1P1RWXYZ/LB1D1 |
Departure
| Time | 2026-05-04 01:27 |
|---|---|
| Airport | Incheon International Airport (RKSI) |
Arrival
| Time | N/A |
|---|---|
| Airport | Frankfurt Main Airport (EDDF) |
| Time | Latitude | Longitude | Altitude | Speed | Heading |
|---|---|---|---|---|---|
| 2026-05-04 00:45 | 37.46665 | 126.43970 | 36 ft | 0 kts | 64° |
| 2026-05-04 01:10 | 37.46662 | 126.43963 | 36 ft | 2 kts | 65° |
| 2026-05-04 01:10 | 37.46654 | 126.43941 | 36 ft | 3 kts | 68° |
| 2026-05-04 01:10 | 37.46647 | 126.43917 | 36 ft | 3 kts | 68° |
| 2026-05-04 01:11 | 37.46639 | 126.43894 | 36 ft | 3 kts | 65° |
| 2026-05-04 01:11 | 37.46632 | 126.43874 | 36 ft | 3 kts | 87° |
| 2026-05-04 01:11 | 37.46633 | 126.43852 | 36 ft | 3 kts | 112° |
| 2026-05-04 01:11 | 37.46642 | 126.43830 | 36 ft | 3 kts | 118° |
| 2026-05-04 01:12 | 37.46651 | 126.43808 | 36 ft | 3 kts | 107° |
| 2026-05-04 01:12 | 37.46655 | 126.43786 | 36 ft | 3 kts | 85° |
| 2026-05-04 01:12 | 37.46652 | 126.43764 | 36 ft | 3 kts | 63° |
| 2026-05-04 01:12 | 37.46643 | 126.43746 | 36 ft | 3 kts | 54° |
| 2026-05-04 01:13 | 37.46631 | 126.43725 | 36 ft | 3 kts | 54° |
| 2026-05-04 01:13 | 37.46625 | 126.43713 | 36 ft | 0 kts | 54° |
| 2026-05-04 01:16 | 37.46631 | 126.43724 | 36 ft | 3 kts | 56° |
| 2026-05-04 01:16 | 37.46640 | 126.43811 | 36 ft | 15 kts | 111° |
| 2026-05-04 01:16 | 37.46561 | 126.43895 | 36 ft | 15 kts | 145° |
| 2026-05-04 01:17 | 37.46481 | 126.43966 | 36 ft | 14 kts | 145° |
| 2026-05-04 01:17 | 37.46400 | 126.44017 | 36 ft | 13 kts | 193° |
| 2026-05-04 01:17 | 37.46340 | 126.43940 | 36 ft | 12 kts | 235° |
| 2026-05-04 01:17 | 37.46282 | 126.43837 | 36 ft | 16 kts | 234° |
| 2026-05-04 01:18 | 37.46212 | 126.43713 | 36 ft | 18 kts | 234° |
| 2026-05-04 01:18 | 37.46141 | 126.43585 | 36 ft | 17 kts | 235° |
| 2026-05-04 01:18 | 37.46073 | 126.43465 | 36 ft | 16 kts | 234° |
| 2026-05-04 01:18 | 37.46008 | 126.43353 | 36 ft | 15 kts | 234° |
| 2026-05-04 01:19 | 37.45967 | 126.43282 | 36 ft | 15 kts | 234° |
| 2026-05-04 01:19 | 37.45895 | 126.43208 | 36 ft | 14 kts | 165° |
| 2026-05-04 01:19 | 37.45788 | 126.43294 | 36 ft | 13 kts | 143° |
| 2026-05-04 01:19 | 37.45739 | 126.43338 | 36 ft | 13 kts | 144° |
| 2026-05-04 01:20 | 37.45636 | 126.43430 | 36 ft | 18 kts | 144° |
| 2026-05-04 01:20 | 37.45560 | 126.43498 | 36 ft | 21 kts | 144° |
| 2026-05-04 01:20 | 37.45445 | 126.43601 | 36 ft | 20 kts | 144° |
| 2026-05-04 01:20 | 37.45335 | 126.43699 | 36 ft | 19 kts | 144° |
| 2026-05-04 01:21 | 37.45231 | 126.43792 | 36 ft | 18 kts | 143° |
| 2026-05-04 01:21 | 37.45133 | 126.43882 | 36 ft | 17 kts | 144° |
| 2026-05-04 01:21 | 37.45039 | 126.43965 | 36 ft | 16 kts | 144° |
| 2026-05-04 01:21 | 37.44951 | 126.44045 | 36 ft | 15 kts | 144° |
| 2026-05-04 01:22 | 37.44868 | 126.44120 | 36 ft | 14 kts | 144° |
| 2026-05-04 01:22 | 37.44791 | 126.44189 | 36 ft | 13 kts | 144° |
| 2026-05-04 01:22 | 37.44718 | 126.44255 | 36 ft | 13 kts | 144° |
| 2026-05-04 01:22 | 37.44648 | 126.44318 | 36 ft | 12 kts | 144° |
| 2026-05-04 01:23 | 37.44580 | 126.44379 | 36 ft | 12 kts | 144° |
| 2026-05-04 01:23 | 37.44511 | 126.44422 | 36 ft | 11 kts | 202° |
| 2026-05-04 01:23 | 37.44455 | 126.44354 | 36 ft | 11 kts | 232° |
| 2026-05-04 01:23 | 37.44411 | 126.44278 | 36 ft | 11 kts | 234° |
| 2026-05-04 01:24 | 37.44369 | 126.44205 | 36 ft | 10 kts | 235° |
| 2026-05-04 01:24 | 37.44360 | 126.44158 | 36 ft | 3 kts | 313° |
| 2026-05-04 01:24 | 37.44376 | 126.44140 | 36 ft | 3 kts | 325° |
| 2026-05-04 01:24 | 37.44395 | 126.44124 | 36 ft | 6 kts | 325° |
| 2026-05-04 01:25 | 37.44470 | 126.44058 | 36 ft | 0 kts | 325° |
| 2026-05-04 01:25 | 37.44472 | 126.44056 | 36 ft | 4 kts | 324° |
| 2026-05-04 01:25 | 37.44505 | 126.44027 | 36 ft | 1 kts | 324° |
| 2026-05-04 01:26 | 37.44580 | 126.43960 | 36 ft | 33 kts | 324° |
| 2026-05-04 01:26 | 37.44941 | 126.43629 | 36 ft | 96 kts | 324° |
| 2026-05-04 01:26 | 37.45649 | 126.42995 | 37 ft | 153 kts | 324° |
| 2026-05-04 01:26 | 37.46587 | 126.42159 | 348 ft | 168 kts | 323° |
| 2026-05-04 01:27 | 37.47549 | 126.41302 | 1072 ft | 169 kts | 320° |
| 2026-05-04 01:27 | 37.48394 | 126.40293 | 1698 ft | 169 kts | 312° |
| 2026-05-04 01:27 | 37.49164 | 126.39150 | 2356 ft | 170 kts | 308° |
| 2026-05-04 01:27 | 37.49867 | 126.37939 | 2950 ft | 172 kts | 305° |
| 2026-05-04 01:28 | 37.50362 | 126.36571 | 3473 ft | 182 kts | 288° |
| 2026-05-04 01:28 | 37.50570 | 126.34926 | 3706 ft | 199 kts | 280° |
| 2026-05-04 01:28 | 37.50631 | 126.33128 | 3878 ft | 211 kts | 275° |
| 2026-05-04 01:28 | 37.50616 | 126.31246 | 4169 ft | 218 kts | 274° |
| 2026-05-04 01:29 | 37.50602 | 126.29326 | 4530 ft | 220 kts | 275° |
| 2026-05-04 01:29 | 37.50620 | 126.27384 | 4867 ft | 225 kts | 276° |
| 2026-05-04 01:29 | 37.50660 | 126.25355 | 5034 ft | 239 kts | 276° |
| 2026-05-04 01:29 | 37.50708 | 126.23224 | 5388 ft | 248 kts | 276° |
| 2026-05-04 01:30 | 37.50759 | 126.21018 | 5843 ft | 255 kts | 276° |
| 2026-05-04 01:30 | 37.50600 | 126.18763 | 6447 ft | 265 kts | 262° |
| 2026-05-04 01:30 | 37.49951 | 126.16565 | 7124 ft | 271 kts | 251° |
| 2026-05-04 01:30 | 37.49025 | 126.14480 | 7793 ft | 275 kts | 245° |
| 2026-05-04 01:31 | 37.47957 | 126.12464 | 8417 ft | 279 kts | 242° |
| 2026-05-04 01:31 | 37.46828 | 126.10462 | 9031 ft | 281 kts | 242° |
| 2026-05-04 01:31 | 37.45711 | 126.08431 | 9634 ft | 283 kts | 242° |
| 2026-05-04 01:31 | 37.44608 | 126.06365 | 10191 ft | 287 kts | 243° |
| 2026-05-04 01:32 | 37.43478 | 126.04223 | 10500 ft | 302 kts | 243° |
| 2026-05-04 01:32 | 37.42285 | 126.01943 | 10645 ft | 321 kts | 245° |
| 2026-05-04 01:32 | 37.41451 | 125.99321 | 10784 ft | 329 kts | 262° |
| 2026-05-04 01:32 | 37.41042 | 125.96416 | 10934 ft | 347 kts | 266° |
| 2026-05-04 01:33 | 37.40765 | 125.93317 | 11090 ft | 366 kts | 270° |
| 2026-05-04 01:33 | 37.40621 | 125.90036 | 11236 ft | 385 kts | 272° |
| 2026-05-04 01:33 | 37.40574 | 125.86621 | 11702 ft | 395 kts | 274° |
| 2026-05-04 01:33 | 37.40557 | 125.83145 | 12308 ft | 401 kts | 274° |
| 2026-05-04 01:34 | 37.40523 | 125.79611 | 12966 ft | 406 kts | 274° |
| 2026-05-04 01:34 | 37.40478 | 125.76045 | 13621 ft | 411 kts | 274° |
| 2026-05-04 01:34 | 37.40430 | 125.72442 | 14307 ft | 414 kts | 274° |
| 2026-05-04 01:34 | 37.40381 | 125.68804 | 14946 ft | 417 kts | 274° |
| 2026-05-04 01:35 | 37.40330 | 125.65146 | 15562 ft | 421 kts | 274° |
| 2026-05-04 01:35 | 37.40297 | 125.61455 | 16186 ft | 424 kts | 275° |
| 2026-05-04 01:35 | 37.40260 | 125.57730 | 16732 ft | 428 kts | 275° |
| 2026-05-04 01:35 | 37.40210 | 125.53978 | 17389 ft | 430 kts | 275° |
| 2026-05-04 01:36 | 37.40153 | 125.50206 | 17917 ft | 434 kts | 275° |
| 2026-05-04 01:36 | 37.40093 | 125.46447 | 18465 ft | 437 kts | 275° |
| 2026-05-04 01:36 | 37.40029 | 125.42569 | 19004 ft | 440 kts | 275° |
| 2026-05-04 01:36 | 37.39964 | 125.38750 | 19502 ft | 443 kts | 275° |
| 2026-05-04 01:37 | 37.39898 | 125.34858 | 20011 ft | 447 kts | 275° |
| 2026-05-04 01:37 | 37.39831 | 125.30942 | 20491 ft | 450 kts | 275° |
| 2026-05-04 01:37 | 37.39763 | 125.26999 | 20997 ft | 452 kts | 275° |
| 2026-05-04 01:37 | 37.39695 | 125.23032 | 21485 ft | 455 kts | 275° |
| 2026-05-04 01:38 | 37.39647 | 125.19043 | 21960 ft | 457 kts | 275° |
| 2026-05-04 01:38 | 37.39589 | 125.15032 | 22419 ft | 461 kts | 275° |
| 2026-05-04 01:38 | 37.39519 | 125.10991 | 22858 ft | 463 kts | 275° |
| 2026-05-04 01:38 | 37.39442 | 125.06928 | 23286 ft | 466 kts | 275° |
| 2026-05-04 01:39 | 37.39361 | 125.02836 | 23677 ft | 469 kts | 274° |
| 2026-05-04 01:39 | 37.39278 | 124.98729 | 24094 ft | 471 kts | 275° |
| 2026-05-04 01:39 | 37.39194 | 124.94599 | 24482 ft | 473 kts | 274° |
| 2026-05-04 01:39 | 37.39110 | 124.90452 | 24891 ft | 475 kts | 274° |
| 2026-05-04 01:40 | 37.39026 | 124.86309 | 25433 ft | 472 kts | 274° |
| 2026-05-04 01:40 | 37.38944 | 124.82205 | 26077 ft | 468 kts | 274° |
| 2026-05-04 01:40 | 37.38885 | 124.78130 | 26646 ft | 465 kts | 274° |
| 2026-05-04 01:40 | 37.38811 | 124.74074 | 27128 ft | 464 kts | 274° |
| 2026-05-04 01:41 | 37.38724 | 124.70026 | 27592 ft | 462 kts | 274° |
| 2026-05-04 01:41 | 37.38635 | 124.66054 | 28093 ft | 459 kts | 273° |
| 2026-05-04 01:41 | 37.38542 | 124.62052 | 28545 ft | 457 kts | 273° |
| 2026-05-04 01:41 | 37.38448 | 124.58062 | 28963 ft | 456 kts | 273° |
| 2026-05-04 01:42 | 37.38353 | 124.54080 | 29348 ft | 455 kts | 273° |
| 2026-05-04 01:42 | 37.38258 | 124.50113 | 29789 ft | 452 kts | 273° |
| 2026-05-04 01:42 | 37.38147 | 124.46179 | 30198 ft | 452 kts | 270° |
| 2026-05-04 01:42 | 37.37468 | 124.42276 | 30402 ft | 464 kts | 256° |
| 2026-05-04 01:43 | 37.36182 | 124.38546 | 30831 ft | 466 kts | 250° |
| 2026-05-04 01:43 | 37.34671 | 124.34925 | 31195 ft | 468 kts | 247° |
| 2026-05-04 01:43 | 37.32990 | 124.31425 | 31522 ft | 469 kts | 244° |
| 2026-05-04 01:43 | 37.31211 | 124.27994 | 31866 ft | 468 kts | 243° |
| 2026-05-04 01:44 | 37.29446 | 124.24572 | 32017 ft | 466 kts | 244° |
| 2026-05-04 01:44 | 37.25978 | 124.17716 | 32124 ft | 465 kts | 244° |
| 2026-05-04 01:45 | 37.22502 | 124.10870 | 32125 ft | 466 kts | 243° |
| 2026-05-04 01:45 | 37.17087 | 124.00783 | 32126 ft | 464 kts | 243° |
| 2026-05-04 01:46 | 37.13563 | 123.94013 | 32128 ft | 463 kts | 243° |
| 2026-05-04 01:46 | 37.10069 | 123.87238 | 32128 ft | 463 kts | 243° |
| 2026-05-04 01:47 | 37.06571 | 123.80483 | 32130 ft | 462 kts | 243° |
| 2026-05-04 01:47 | 37.03073 | 123.73746 | 32132 ft | 461 kts | 243° |
| 2026-05-04 01:48 | 36.99608 | 123.67023 | 32133 ft | 459 kts | 244° |
| 2026-05-04 01:48 | 36.96162 | 123.60305 | 32134 ft | 459 kts | 243° |
| 2026-05-04 01:49 | 36.92679 | 123.53626 | 32135 ft | 458 kts | 243° |
| 2026-05-04 01:49 | 36.89192 | 123.46966 | 32137 ft | 458 kts | 243° |
| 2026-05-04 01:50 | 36.85787 | 123.40268 | 32126 ft | 452 kts | 250° |
| 2026-05-04 01:50 | 36.84869 | 123.36622 | 32143 ft | 443 kts | 266° |
| 2026-05-04 01:50 | 36.84832 | 123.32814 | 32146 ft | 439 kts | 278° |
| 2026-05-04 01:51 | 36.85732 | 123.25323 | 32140 ft | 434 kts | 284° |
| 2026-05-04 01:51 | 36.87267 | 123.18048 | 32141 ft | 433 kts | 287° |
| 2026-05-04 01:52 | 36.89025 | 123.10847 | 32143 ft | 434 kts | 288° |
| 2026-05-04 01:52 | 36.90768 | 123.03619 | 32144 ft | 435 kts | 288° |
| 2026-05-04 01:53 | 36.92497 | 122.96379 | 32145 ft | 435 kts | 287° |
| 2026-05-04 01:53 | 36.94255 | 122.89148 | 32146 ft | 435 kts | 288° |
| 2026-05-04 01:54 | 36.96000 | 122.81913 | 32148 ft | 435 kts | 288° |
| 2026-05-04 01:54 | 36.97729 | 122.74658 | 32149 ft | 436 kts | 288° |
| 2026-05-04 01:55 | 36.99475 | 122.67399 | 32149 ft | 436 kts | 288° |
| 2026-05-04 01:55 | 37.01205 | 122.60113 | 32151 ft | 437 kts | 287° |
| 2026-05-04 01:56 | 37.02909 | 122.52826 | 32152 ft | 437 kts | 287° |
| 2026-05-04 01:56 | 37.04609 | 122.45532 | 32152 ft | 437 kts | 287° |
| 2026-05-04 01:57 | 37.06306 | 122.38235 | 32153 ft | 436 kts | 287° |
| 2026-05-04 01:57 | 37.07492 | 122.34756 | 32155 ft | 436 kts | 302° |
| 2026-05-04 01:57 | 37.09362 | 122.31825 | 32155 ft | 437 kts | 309° |
| 2026-05-04 01:58 | 37.13779 | 122.26586 | 32155 ft | 441 kts | 321° |
| 2026-05-04 01:58 | 37.18047 | 122.21171 | 32164 ft | 437 kts | 299° |
| 2026-05-04 01:59 | 37.20598 | 122.14299 | 32154 ft | 438 kts | 291° |
| 2026-05-04 01:59 | 37.22533 | 122.07055 | 32154 ft | 438 kts | 288° |
| 2026-05-04 02:00 | 37.24342 | 121.99752 | 32155 ft | 438 kts | 289° |
| 2026-05-04 02:00 | 37.26190 | 121.92450 | 32156 ft | 441 kts | 289° |
| 2026-05-04 02:01 | 37.28058 | 121.85113 | 32156 ft | 441 kts | 289° |
| 2026-05-04 02:01 | 37.29952 | 121.77798 | 32156 ft | 441 kts | 289° |
| 2026-05-04 02:02 | 37.31851 | 121.70476 | 32156 ft | 441 kts | 289° |
| 2026-05-04 02:02 | 37.33728 | 121.63145 | 32155 ft | 442 kts | 289° |
| 2026-05-04 02:03 | 37.35606 | 121.55792 | 32162 ft | 442 kts | 289° |
| 2026-05-04 02:03 | 37.37501 | 121.48442 | 32162 ft | 442 kts | 289° |
| 2026-05-04 02:04 | 37.39345 | 121.41129 | 32162 ft | 442 kts | 289° |
| 2026-05-04 02:04 | 37.41194 | 121.33747 | 32162 ft | 443 kts | 288° |
| 2026-05-04 02:05 | 37.43042 | 121.26351 | 32163 ft | 443 kts | 288° |
| 2026-05-04 02:05 | 37.44893 | 121.18949 | 32163 ft | 444 kts | 289° |
| 2026-05-04 02:06 | 37.47064 | 121.11687 | 32163 ft | 443 kts | 293° |
| 2026-05-04 02:06 | 37.49434 | 121.04523 | 32162 ft | 444 kts | 292° |
| 2026-05-04 02:07 | 37.51348 | 120.98526 | 32163 ft | 444 kts | 292° |
| 2026-05-04 02:07 | 37.53630 | 120.91299 | 32163 ft | 444 kts | 292° |
| 2026-05-04 02:08 | 37.55911 | 120.84052 | 32163 ft | 445 kts | 292° |
| 2026-05-04 02:08 | 37.58195 | 120.76797 | 32162 ft | 445 kts | 292° |
| 2026-05-04 02:09 | 37.60553 | 120.69570 | 32160 ft | 446 kts | 293° |
| 2026-05-04 02:09 | 37.62936 | 120.62340 | 32153 ft | 447 kts | 292° |
| 2026-05-04 02:10 | 37.65336 | 120.55107 | 32156 ft | 447 kts | 295° |
| 2026-05-04 02:10 | 37.68262 | 120.48191 | 32157 ft | 448 kts | 300° |
| 2026-05-04 02:11 | 37.71419 | 120.41404 | 32155 ft | 448 kts | 300° |
| 2026-05-04 02:11 | 37.74536 | 120.34599 | 32155 ft | 448 kts | 300° |
| 2026-05-04 02:12 | 37.77633 | 120.27773 | 32143 ft | 448 kts | 300° |
| 2026-05-04 02:12 | 37.80725 | 120.20932 | 32140 ft | 449 kts | 300° |
| 2026-05-04 02:13 | 37.83833 | 120.14089 | 32137 ft | 449 kts | 300° |
| 2026-05-04 02:13 | 37.86950 | 120.07255 | 32136 ft | 448 kts | 300° |
| 2026-05-04 02:14 | 37.90051 | 120.00390 | 32135 ft | 448 kts | 300° |
| 2026-05-04 02:14 | 37.93136 | 119.93532 | 32133 ft | 448 kts | 299° |
| 2026-05-04 02:15 | 37.96235 | 119.86666 | 32132 ft | 448 kts | 300° |
| 2026-05-04 02:15 | 37.99329 | 119.79794 | 32131 ft | 448 kts | 299° |
| 2026-05-04 02:16 | 38.02396 | 119.72907 | 32129 ft | 448 kts | 299° |
| 2026-05-04 02:16 | 38.05435 | 119.66059 | 32128 ft | 448 kts | 299° |
| 2026-05-04 02:17 | 38.08493 | 119.59158 | 32127 ft | 449 kts | 299° |
| 2026-05-04 02:17 | 38.11474 | 119.52186 | 32127 ft | 450 kts | 296° |
| 2026-05-04 02:18 | 38.13936 | 119.44880 | 32124 ft | 450 kts | 292° |
| 2026-05-04 02:18 | 38.16260 | 119.37505 | 32123 ft | 450 kts | 292° |
| 2026-05-04 02:19 | 38.18622 | 119.30134 | 32122 ft | 451 kts | 293° |
| 2026-05-04 02:19 | 38.20995 | 119.22757 | 32120 ft | 451 kts | 293° |
| 2026-05-04 02:20 | 38.23372 | 119.15374 | 32122 ft | 451 kts | 293° |
| 2026-05-04 02:20 | 38.25809 | 119.08014 | 32118 ft | 452 kts | 293° |
| 2026-05-04 02:21 | 38.28205 | 119.00617 | 32117 ft | 452 kts | 293° |
| 2026-05-04 02:21 | 38.30575 | 118.93202 | 32114 ft | 453 kts | 293° |
| 2026-05-04 02:22 | 38.32939 | 118.85773 | 32116 ft | 453 kts | 293° |
| 2026-05-04 02:22 | 38.35308 | 118.78328 | 32115 ft | 453 kts | 293° |
| 2026-05-04 02:23 | 38.37697 | 118.70895 | 32114 ft | 453 kts | 293° |
| 2026-05-04 02:23 | 38.40084 | 118.63448 | 32114 ft | 454 kts | 293° |
| 2026-05-04 02:24 | 38.42451 | 118.55980 | 32114 ft | 454 kts | 292° |
| 2026-05-04 02:24 | 38.44811 | 118.48508 | 32114 ft | 454 kts | 292° |
| 2026-05-04 02:25 | 38.47172 | 118.41036 | 32114 ft | 454 kts | 292° |
| 2026-05-04 02:25 | 38.49560 | 118.33565 | 32114 ft | 455 kts | 293° |
| 2026-05-04 02:26 | 38.51909 | 118.26109 | 32114 ft | 455 kts | 292° |
| 2026-05-04 02:26 | 38.54255 | 118.18600 | 32114 ft | 455 kts | 292° |
| 2026-05-04 02:27 | 38.56597 | 118.11085 | 32116 ft | 455 kts | 292° |
| 2026-05-04 02:27 | 38.59222 | 118.03756 | 32124 ft | 454 kts | 304° |
| 2026-05-04 02:28 | 38.63158 | 117.97438 | 32118 ft | 455 kts | 311° |
| 2026-05-04 02:28 | 38.67536 | 117.91582 | 32118 ft | 456 kts | 314° |
| 2026-05-04 02:29 | 38.71949 | 117.85756 | 32118 ft | 455 kts | 313° |
| 2026-05-04 02:29 | 38.76329 | 117.79899 | 32120 ft | 455 kts | 313° |
| 2026-05-04 02:30 | 38.80692 | 117.74034 | 32120 ft | 454 kts | 313° |
| 2026-05-04 02:30 | 38.85063 | 117.68188 | 32121 ft | 453 kts | 313° |
| 2026-05-04 02:31 | 38.89446 | 117.62369 | 32119 ft | 453 kts | 313° |
| 2026-05-04 02:31 | 38.93791 | 117.56505 | 32123 ft | 453 kts | 313° |
| 2026-05-04 02:32 | 38.98126 | 117.50625 | 32123 ft | 453 kts | 313° |
| 2026-05-04 02:32 | 39.02456 | 117.44740 | 32123 ft | 453 kts | 313° |
| 2026-05-04 02:33 | 39.06505 | 117.38563 | 32124 ft | 453 kts | 298° |
| 2026-05-04 02:33 | 39.08608 | 117.30906 | 32125 ft | 456 kts | 287° |
| 2026-05-04 02:34 | 39.09909 | 117.22897 | 32123 ft | 458 kts | 281° |
| 2026-05-04 02:34 | 39.10901 | 117.14854 | 32124 ft | 458 kts | 281° |
| 2026-05-04 02:35 | 39.12312 | 117.06897 | 32122 ft | 455 kts | 296° |
| 2026-05-04 02:35 | 39.14052 | 117.03460 | 32124 ft | 454 kts | 312° |
| 2026-05-04 02:35 | 39.16469 | 117.00864 | 32123 ft | 454 kts | 328° |
| 2026-05-04 02:36 | 39.19342 | 116.99158 | 32126 ft | 457 kts | 339° |
| 2026-05-04 02:36 | 39.22343 | 116.97944 | 32124 ft | 458 kts | 341° |
| 2026-05-04 02:36 | 39.28543 | 116.96024 | 32123 ft | 460 kts | 347° |
| 2026-05-04 02:37 | 39.34861 | 116.94686 | 32124 ft | 461 kts | 348° |
| 2026-05-04 02:37 | 39.41201 | 116.93419 | 32124 ft | 461 kts | 348° |
| 2026-05-04 02:38 | 39.47529 | 116.92128 | 32124 ft | 460 kts | 348° |
| 2026-05-04 02:38 | 39.53851 | 116.90844 | 32123 ft | 460 kts | 348° |
| 2026-05-04 02:39 | 39.60174 | 116.89541 | 32123 ft | 460 kts | 348° |
| 2026-05-04 02:39 | 39.66491 | 116.88233 | 32123 ft | 460 kts | 348° |
| 2026-05-04 02:40 | 39.72809 | 116.86922 | 32123 ft | 460 kts | 348° |
| 2026-05-04 02:40 | 39.79130 | 116.85609 | 32123 ft | 460 kts | 348° |
| 2026-05-04 02:41 | 39.85454 | 116.84339 | 32123 ft | 460 kts | 348° |
| 2026-05-04 02:41 | 39.91778 | 116.83084 | 32123 ft | 460 kts | 348° |
| 2026-05-04 02:42 | 39.98105 | 116.81822 | 32123 ft | 460 kts | 348° |
| 2026-05-04 02:42 | 40.04433 | 116.80567 | 32123 ft | 459 kts | 349° |
| 2026-05-04 02:43 | 40.10738 | 116.79310 | 32123 ft | 458 kts | 349° |
| 2026-05-04 02:43 | 40.17036 | 116.78046 | 32123 ft | 458 kts | 349° |
| 2026-05-04 02:44 | 40.23337 | 116.76778 | 32123 ft | 458 kts | 349° |
| 2026-05-04 02:44 | 40.29590 | 116.75518 | 32123 ft | 458 kts | 349° |
| 2026-05-04 02:45 | 40.35821 | 116.73812 | 32123 ft | 457 kts | 342° |
| 2026-05-04 02:45 | 40.41886 | 116.71332 | 32122 ft | 456 kts | 340° |
| 2026-05-04 02:46 | 40.47936 | 116.68818 | 32122 ft | 456 kts | 341° |
| 2026-05-04 02:46 | 40.53998 | 116.66366 | 32121 ft | 456 kts | 341° |
| 2026-05-04 02:47 | 40.60061 | 116.63901 | 32122 ft | 456 kts | 341° |
| 2026-05-04 02:47 | 40.66134 | 116.61426 | 32121 ft | 456 kts | 341° |
| 2026-05-04 02:48 | 40.72195 | 116.58952 | 32121 ft | 456 kts | 341° |
| 2026-05-04 02:48 | 40.78319 | 116.56755 | 32123 ft | 457 kts | 348° |
| 2026-05-04 02:49 | 40.84656 | 116.55863 | 32120 ft | 459 kts | 354° |
| 2026-05-04 02:49 | 40.91034 | 116.55390 | 32120 ft | 459 kts | 354° |
| 2026-05-04 02:50 | 40.97415 | 116.54838 | 32119 ft | 459 kts | 354° |
| 2026-05-04 02:50 | 41.03785 | 116.54250 | 32118 ft | 459 kts | 354° |
| 2026-05-04 02:51 | 41.10150 | 116.53654 | 32117 ft | 458 kts | 354° |
| 2026-05-04 02:51 | 41.16506 | 116.53056 | 32116 ft | 458 kts | 354° |
| 2026-05-04 02:52 | 41.21782 | 116.52461 | 32101 ft | 457 kts | 348° |
| 2026-05-04 02:52 | 41.25762 | 116.50670 | 32118 ft | 457 kts | 336° |
| 2026-05-04 02:52 | 41.28632 | 116.48850 | 32115 ft | 457 kts | 333° |
| 2026-05-04 02:53 | 41.34151 | 116.44643 | 32111 ft | 457 kts | 329° |
| 2026-05-04 02:53 | 41.39584 | 116.40230 | 32114 ft | 457 kts | 329° |
| 2026-05-04 02:54 | 41.44149 | 116.36570 | 32114 ft | 457 kts | 330° |
| 2026-05-04 02:54 | 41.49615 | 116.32207 | 32114 ft | 458 kts | 330° |
| 2026-05-04 02:55 | 41.57848 | 116.25676 | 32113 ft | 459 kts | 330° |
| 2026-05-04 02:56 | 41.63300 | 116.21343 | 32112 ft | 459 kts | 330° |
| 2026-05-04 02:56 | 41.68784 | 116.16970 | 32111 ft | 459 kts | 330° |
| 2026-05-04 02:57 | 41.74276 | 116.12600 | 32110 ft | 459 kts | 330° |
| 2026-05-04 02:57 | 41.79757 | 116.08196 | 32108 ft | 460 kts | 330° |
| 2026-05-04 02:58 | 41.85239 | 116.03774 | 32108 ft | 460 kts | 330° |
| 2026-05-04 02:58 | 41.90718 | 115.99348 | 32105 ft | 460 kts | 330° |
| 2026-05-04 02:59 | 41.95673 | 115.93991 | 32115 ft | 463 kts | 311° |
| 2026-05-04 02:59 | 41.99345 | 115.86824 | 32246 ft | 469 kts | 303° |
| 2026-05-04 02:59 | 42.00945 | 115.83006 | 32553 ft | 468 kts | 301° |
| 2026-05-04 03:00 | 42.02462 | 115.79133 | 32804 ft | 468 kts | 301° |
| 2026-05-04 03:00 | 42.03975 | 115.75260 | 33027 ft | 468 kts | 301° |
| 2026-05-04 03:00 | 42.05504 | 115.71400 | 33307 ft | 466 kts | 301° |
| 2026-05-04 03:00 | 42.07036 | 115.67562 | 33532 ft | 466 kts | 301° |
| 2026-05-04 03:01 | 42.08581 | 115.63729 | 33745 ft | 465 kts | 302° |
| 2026-05-04 03:01 | 42.10152 | 115.59940 | 33961 ft | 464 kts | 302° |
| 2026-05-04 03:01 | 42.11707 | 115.56127 | 34080 ft | 465 kts | 301° |
| 2026-05-04 03:02 | 42.14777 | 115.48477 | 34101 ft | 464 kts | 301° |
| 2026-05-04 03:02 | 42.17831 | 115.40815 | 34099 ft | 464 kts | 301° |
| 2026-05-04 03:03 | 42.20879 | 115.33151 | 34088 ft | 463 kts | 301° |
| 2026-05-04 03:03 | 42.22870 | 115.24924 | 34090 ft | 470 kts | 279° |
| 2026-05-04 03:04 | 42.22955 | 115.16041 | 34085 ft | 477 kts | 270° |
| 2026-05-04 03:04 | 42.22366 | 115.07095 | 34082 ft | 480 kts | 267° |
| 2026-05-04 03:05 | 42.21653 | 114.98150 | 34084 ft | 479 kts | 268° |
| 2026-05-04 03:05 | 42.20976 | 114.89203 | 34083 ft | 479 kts | 268° |
| 2026-05-04 03:06 | 42.20311 | 114.80260 | 34083 ft | 479 kts | 268° |
| 2026-05-04 03:06 | 42.19713 | 114.71318 | 34083 ft | 479 kts | 268° |
| 2026-05-04 03:07 | 42.19082 | 114.62386 | 34082 ft | 479 kts | 268° |
| 2026-05-04 03:07 | 42.18429 | 114.53446 | 34082 ft | 479 kts | 268° |
| 2026-05-04 03:08 | 42.17764 | 114.44505 | 34082 ft | 479 kts | 268° |
| 2026-05-04 03:08 | 42.17090 | 114.35552 | 34083 ft | 480 kts | 268° |
| 2026-05-04 03:09 | 42.16409 | 114.26614 | 34086 ft | 478 kts | 267° |
| 2026-05-04 03:09 | 42.15728 | 114.17768 | 34081 ft | 472 kts | 267° |
| 2026-05-04 03:10 | 42.15052 | 114.09076 | 34084 ft | 468 kts | 267° |
| 2026-05-04 03:10 | 42.14365 | 114.00336 | 34084 ft | 469 kts | 267° |
| 2026-05-04 03:11 | 42.13679 | 113.91588 | 34085 ft | 470 kts | 267° |
| 2026-05-04 03:11 | 42.13014 | 113.82839 | 34084 ft | 470 kts | 267° |
| 2026-05-04 03:12 | 42.12298 | 113.74097 | 34087 ft | 470 kts | 266° |
| 2026-05-04 03:12 | 42.11569 | 113.65356 | 34084 ft | 469 kts | 266° |
| 2026-05-04 03:13 | 42.10837 | 113.56621 | 34084 ft | 469 kts | 266° |
| 2026-05-04 03:13 | 42.09962 | 113.47917 | 34085 ft | 470 kts | 262° |
| 2026-05-04 03:14 | 42.08415 | 113.39340 | 34084 ft | 472 kts | 258° |
| 2026-05-04 03:14 | 42.06735 | 113.30787 | 34085 ft | 473 kts | 259° |
| 2026-05-04 03:15 | 42.05102 | 113.22227 | 34081 ft | 472 kts | 259° |
| 2026-05-04 03:15 | 42.03473 | 113.13674 | 34081 ft | 472 kts | 259° |
| 2026-05-04 03:16 | 42.01846 | 113.05119 | 34082 ft | 472 kts | 259° |
| 2026-05-04 03:16 | 42.00246 | 112.96567 | 34082 ft | 471 kts | 259° |
| 2026-05-04 03:17 | 41.98598 | 112.88034 | 34084 ft | 472 kts | 259° |
| 2026-05-04 03:17 | 41.96936 | 112.79500 | 34085 ft | 472 kts | 259° |
| 2026-05-04 03:18 | 41.95270 | 112.70966 | 34085 ft | 472 kts | 259° |
| 2026-05-04 03:18 | 41.94736 | 112.66656 | 34080 ft | 465 kts | 272° |
| 2026-05-04 03:18 | 41.94947 | 112.62340 | 34086 ft | 463 kts | 280° |
| 2026-05-04 03:19 | 41.96140 | 112.53882 | 34086 ft | 459 kts | 286° |
| 2026-05-04 03:19 | 41.97810 | 112.45617 | 34087 ft | 457 kts | 288° |
| 2026-05-04 03:20 | 41.99491 | 112.37447 | 34087 ft | 456 kts | 288° |
| 2026-05-04 03:20 | 42.01152 | 112.29202 | 34087 ft | 457 kts | 288° |
| 2026-05-04 03:21 | 42.02797 | 112.20953 | 34084 ft | 457 kts | 287° |
| 2026-05-04 03:21 | 42.04490 | 112.12716 | 34087 ft | 457 kts | 288° |
| 2026-05-04 03:22 | 42.06157 | 112.04469 | 34087 ft | 457 kts | 288° |
| 2026-05-04 03:22 | 42.07802 | 111.96215 | 34087 ft | 457 kts | 287° |
| 2026-05-04 03:23 | 42.09437 | 111.87948 | 34087 ft | 457 kts | 287° |
| 2026-05-04 03:23 | 42.11064 | 111.79683 | 34086 ft | 457 kts | 287° |
| 2026-05-04 03:24 | 42.12694 | 111.71404 | 34086 ft | 457 kts | 288° |
| 2026-05-04 03:24 | 42.14344 | 111.63134 | 34081 ft | 457 kts | 287° |
| 2026-05-04 03:25 | 42.15948 | 111.54838 | 34079 ft | 457 kts | 287° |
| 2026-05-04 03:25 | 42.17538 | 111.46542 | 34077 ft | 457 kts | 287° |
| 2026-05-04 03:26 | 42.19126 | 111.38235 | 34078 ft | 458 kts | 287° |
| 2026-05-04 03:26 | 42.20189 | 111.29778 | 34074 ft | 463 kts | 274° |
| 2026-05-04 03:27 | 42.19732 | 111.21071 | 34072 ft | 469 kts | 267° |
| 2026-05-04 03:27 | 42.18786 | 111.12411 | 34076 ft | 471 kts | 265° |
| 2026-05-04 03:28 | 42.17774 | 111.03667 | 34075 ft | 472 kts | 265° |
| 2026-05-04 03:28 | 42.16781 | 110.94908 | 34075 ft | 473 kts | 265° |
| 2026-05-04 03:29 | 42.15792 | 110.86141 | 34075 ft | 474 kts | 265° |
| 2026-05-04 03:29 | 42.14860 | 110.77343 | 34075 ft | 474 kts | 266° |
| 2026-05-04 03:30 | 42.13917 | 110.68540 | 34074 ft | 475 kts | 266° |
| 2026-05-04 03:30 | 42.12945 | 110.59717 | 34073 ft | 476 kts | 266° |
| 2026-05-04 03:31 | 42.11958 | 110.50881 | 34069 ft | 478 kts | 266° |
| 2026-05-04 03:31 | 42.10958 | 110.42032 | 34072 ft | 478 kts | 266° |
| 2026-05-04 03:32 | 42.09949 | 110.33172 | 34070 ft | 479 kts | 266° |
| 2026-05-04 03:32 | 42.08931 | 110.24307 | 34071 ft | 480 kts | 266° |
| 2026-05-04 03:33 | 42.07906 | 110.15432 | 34069 ft | 480 kts | 266° |
| 2026-05-04 03:33 | 42.06879 | 110.06609 | 34068 ft | 480 kts | 266° |
| 2026-05-04 03:34 | 42.05838 | 109.97727 | 34068 ft | 480 kts | 266° |
| 2026-05-04 03:34 | 42.04783 | 109.88787 | 34066 ft | 480 kts | 265° |
| 2026-05-04 03:35 | 42.03728 | 109.79914 | 34065 ft | 481 kts | 265° |
| 2026-05-04 03:35 | 42.02667 | 109.71041 | 34064 ft | 481 kts | 265° |
| 2026-05-04 03:36 | 42.01606 | 109.62234 | 34063 ft | 480 kts | 265° |
| 2026-05-04 03:36 | 42.00532 | 109.53380 | 34061 ft | 480 kts | 265° |
| 2026-05-04 03:37 | 41.99452 | 109.44527 | 34060 ft | 480 kts | 265° |
| 2026-05-04 03:37 | 41.98364 | 109.35679 | 34059 ft | 480 kts | 265° |
| 2026-05-04 03:38 | 41.97271 | 109.26838 | 34057 ft | 479 kts | 265° |
| 2026-05-04 03:38 | 41.96173 | 109.18019 | 34056 ft | 479 kts | 265° |
| 2026-05-04 03:39 | 41.95067 | 109.09191 | 34056 ft | 479 kts | 264° |
| 2026-05-04 03:39 | 41.93955 | 109.00378 | 34053 ft | 479 kts | 264° |
| 2026-05-04 03:40 | 41.93026 | 108.93053 | 34053 ft | 479 kts | 264° |
| 2026-05-04 03:40 | 41.91902 | 108.84245 | 34051 ft | 478 kts | 264° |
| 2026-05-04 03:41 | 41.90772 | 108.75444 | 34054 ft | 478 kts | 264° |
| 2026-05-04 03:41 | 41.89635 | 108.66646 | 34053 ft | 479 kts | 264° |
| 2026-05-04 03:42 | 41.88491 | 108.57842 | 34052 ft | 479 kts | 264° |
| 2026-05-04 03:42 | 41.87340 | 108.49048 | 34051 ft | 479 kts | 264° |
| 2026-05-04 03:43 | 41.86181 | 108.40242 | 34049 ft | 479 kts | 264° |
| 2026-05-04 03:43 | 41.85016 | 108.31448 | 34049 ft | 479 kts | 264° |
| 2026-05-04 03:44 | 41.83844 | 108.22652 | 34048 ft | 479 kts | 264° |
| 2026-05-04 03:44 | 41.82665 | 108.13858 | 34047 ft | 479 kts | 264° |
| 2026-05-04 03:45 | 41.81479 | 108.05062 | 34046 ft | 479 kts | 263° |
| 2026-05-04 03:45 | 41.80286 | 107.96273 | 34046 ft | 479 kts | 263° |
| 2026-05-04 03:46 | 41.79087 | 107.87490 | 34045 ft | 479 kts | 263° |
| 2026-05-04 03:46 | 41.77881 | 107.78707 | 34044 ft | 479 kts | 263° |
| 2026-05-04 03:47 | 41.76669 | 107.69936 | 34043 ft | 479 kts | 263° |
| 2026-05-04 03:47 | 41.75450 | 107.61160 | 34042 ft | 479 kts | 263° |
| 2026-05-04 03:48 | 41.74225 | 107.52393 | 34042 ft | 479 kts | 263° |
| 2026-05-04 03:48 | 41.72992 | 107.43627 | 34041 ft | 479 kts | 263° |
| 2026-05-04 03:49 | 41.71762 | 107.34923 | 34050 ft | 479 kts | 263° |
| 2026-05-04 03:49 | 41.70516 | 107.26162 | 34050 ft | 479 kts | 262° |
| 2026-05-04 03:50 | 41.69264 | 107.17408 | 34049 ft | 479 kts | 262° |
| 2026-05-04 03:50 | 41.68006 | 107.08655 | 34049 ft | 479 kts | 262° |
| 2026-05-04 03:51 | 41.66740 | 106.99906 | 34049 ft | 479 kts | 262° |
| 2026-05-04 03:51 | 41.65467 | 106.91155 | 34048 ft | 479 kts | 262° |
| 2026-05-04 03:52 | 41.64188 | 106.82411 | 34049 ft | 480 kts | 261° |
| 2026-05-04 03:52 | 41.62902 | 106.73664 | 34030 ft | 479 kts | 261° |
| 2026-05-04 03:53 | 41.61609 | 106.64923 | 34054 ft | 480 kts | 261° |
| 2026-05-04 03:53 | 41.60307 | 106.56163 | 34055 ft | 480 kts | 261° |
| 2026-05-04 03:54 | 41.59030 | 106.47410 | 34055 ft | 480 kts | 261° |
| 2026-05-04 03:54 | 41.57723 | 106.38655 | 34055 ft | 480 kts | 261° |
| 2026-05-04 03:55 | 41.56388 | 106.29916 | 34056 ft | 481 kts | 260° |
| 2026-05-04 03:55 | 41.55044 | 106.21171 | 34056 ft | 481 kts | 260° |
| 2026-05-04 03:56 | 41.53695 | 106.12430 | 34055 ft | 481 kts | 259° |
| 2026-05-04 03:56 | 41.51645 | 106.03927 | 34056 ft | 483 kts | 250° |
| 2026-05-04 03:57 | 41.49091 | 105.95623 | 34057 ft | 484 kts | 249° |
| 2026-05-04 03:57 | 41.46546 | 105.87317 | 34058 ft | 483 kts | 250° |
| 2026-05-04 03:58 | 41.42746 | 105.74879 | 34058 ft | 483 kts | 250° |
| 2026-05-04 03:58 | 41.40214 | 105.66600 | 34060 ft | 483 kts | 250° |
| 2026-05-04 03:59 | 41.37674 | 105.58323 | 34060 ft | 482 kts | 249° |
| 2026-05-04 03:59 | 41.35102 | 105.50089 | 34061 ft | 482 kts | 249° |
| 2026-05-04 04:00 | 41.32523 | 105.41851 | 34062 ft | 482 kts | 249° |
| 2026-05-04 04:00 | 41.29944 | 105.33632 | 34062 ft | 481 kts | 249° |
| 2026-05-04 04:01 | 41.27362 | 105.25425 | 34064 ft | 481 kts | 249° |
| 2026-05-04 04:01 | 41.24791 | 105.17213 | 34065 ft | 481 kts | 250° |
| 2026-05-04 04:02 | 41.22251 | 105.09004 | 34066 ft | 480 kts | 250° |
| 2026-05-04 04:02 | 41.19724 | 105.00854 | 34067 ft | 480 kts | 250° |
| 2026-05-04 04:03 | 41.17132 | 104.92691 | 34071 ft | 480 kts | 249° |
| 2026-05-04 04:03 | 41.14525 | 104.84530 | 34070 ft | 480 kts | 249° |
| 2026-05-04 04:04 | 41.11919 | 104.76389 | 34069 ft | 480 kts | 249° |
| 2026-05-04 04:04 | 41.09325 | 104.68245 | 34071 ft | 479 kts | 250° |
| 2026-05-04 04:05 | 41.06871 | 104.60038 | 34073 ft | 479 kts | 250° |
| 2026-05-04 04:05 | 41.04373 | 104.51855 | 34073 ft | 479 kts | 250° |
| 2026-05-04 04:06 | 41.01861 | 104.43691 | 34082 ft | 478 kts | 250° |
| 2026-05-04 04:06 | 40.99561 | 104.35459 | 34075 ft | 474 kts | 262° |
| 2026-05-04 04:07 | 40.99382 | 104.31127 | 34085 ft | 472 kts | 277° |
| 2026-05-04 04:07 | 40.99876 | 104.26846 | 34085 ft | 470 kts | 283° |
| 2026-05-04 04:07 | 41.01653 | 104.18554 | 34087 ft | 467 kts | 290° |
| 2026-05-04 04:08 | 41.03960 | 104.10528 | 34083 ft | 466 kts | 292° |
| 2026-05-04 04:08 | 41.06299 | 104.02521 | 34085 ft | 466 kts | 292° |
| 2026-05-04 04:09 | 41.08600 | 103.94483 | 34068 ft | 466 kts | 292° |
| 2026-05-04 04:09 | 41.10900 | 103.86449 | 34065 ft | 466 kts | 292° |
| 2026-05-04 04:10 | 41.13227 | 103.78430 | 34066 ft | 466 kts | 292° |
| 2026-05-04 04:10 | 41.15520 | 103.70391 | 34064 ft | 466 kts | 292° |
| 2026-05-04 04:11 | 41.17800 | 103.62337 | 34064 ft | 466 kts | 292° |
| 2026-05-04 04:11 | 41.20073 | 103.54273 | 34066 ft | 466 kts | 292° |
| 2026-05-04 04:12 | 41.22338 | 103.46210 | 34066 ft | 466 kts | 292° |
| 2026-05-04 04:12 | 41.24601 | 103.38149 | 34064 ft | 465 kts | 292° |
| 2026-05-04 04:13 | 41.26883 | 103.30099 | 34064 ft | 466 kts | 292° |
| 2026-05-04 04:13 | 41.29122 | 103.22020 | 34063 ft | 466 kts | 291° |
| 2026-05-04 04:14 | 41.31353 | 103.13921 | 34062 ft | 466 kts | 291° |
| 2026-05-04 04:14 | 41.33567 | 103.05867 | 34061 ft | 466 kts | 291° |
| 2026-05-04 04:15 | 41.35794 | 102.97765 | 34061 ft | 466 kts | 292° |
| 2026-05-04 04:15 | 41.38145 | 102.89719 | 34060 ft | 466 kts | 292° |
| 2026-05-04 04:16 | 41.40462 | 102.81671 | 34059 ft | 465 kts | 292° |
| 2026-05-04 04:16 | 41.42769 | 102.73614 | 34058 ft | 466 kts | 292° |
| 2026-05-04 04:17 | 41.45080 | 102.65544 | 34057 ft | 466 kts | 292° |
| 2026-05-04 04:17 | 41.47390 | 102.57475 | 34056 ft | 465 kts | 292° |
| 2026-05-04 04:18 | 41.49686 | 102.49407 | 34055 ft | 465 kts | 292° |
| 2026-05-04 04:18 | 41.51976 | 102.41328 | 34054 ft | 466 kts | 292° |
| 2026-05-04 04:19 | 41.54261 | 102.33244 | 34054 ft | 465 kts | 292° |
| 2026-05-04 04:19 | 41.56553 | 102.25169 | 34053 ft | 465 kts | 293° |
| 2026-05-04 04:20 | 41.58881 | 102.17108 | 34052 ft | 465 kts | 293° |
| 2026-05-04 04:20 | 41.61176 | 102.09027 | 34051 ft | 465 kts | 292° |
| 2026-05-04 04:21 | 41.63458 | 102.00926 | 34053 ft | 465 kts | 292° |
| 2026-05-04 04:21 | 41.65730 | 101.92827 | 34054 ft | 465 kts | 292° |
| 2026-05-04 04:22 | 41.67993 | 101.84728 | 34054 ft | 465 kts | 292° |
| 2026-05-04 04:22 | 41.70250 | 101.76625 | 34053 ft | 465 kts | 292° |
| 2026-05-04 04:23 | 41.72503 | 101.68510 | 34053 ft | 465 kts | 292° |
| 2026-05-04 04:23 | 41.74755 | 101.60449 | 34052 ft | 466 kts | 292° |
| 2026-05-04 04:24 | 41.77020 | 101.52318 | 34051 ft | 466 kts | 292° |
| 2026-05-04 04:24 | 41.79247 | 101.44173 | 34050 ft | 466 kts | 292° |
| 2026-05-04 04:25 | 41.81467 | 101.36016 | 34049 ft | 466 kts | 292° |
| 2026-05-04 04:25 | 41.83685 | 101.27855 | 34049 ft | 466 kts | 292° |
| 2026-05-04 04:26 | 41.85006 | 101.20809 | 34049 ft | 468 kts | 280° |
| 2026-05-04 04:26 | 41.85497 | 101.12072 | 34048 ft | 471 kts | 274° |
| 2026-05-04 04:27 | 41.85632 | 101.03272 | 34048 ft | 472 kts | 274° |
| 2026-05-04 04:27 | 41.85772 | 100.94524 | 34048 ft | 472 kts | 274° |
| 2026-05-04 04:28 | 41.85931 | 100.85726 | 34048 ft | 472 kts | 274° |
| 2026-05-04 04:28 | 41.86094 | 100.76931 | 34048 ft | 471 kts | 274° |
| 2026-05-04 04:29 | 41.86327 | 100.68157 | 34048 ft | 471 kts | 274° |
| 2026-05-04 04:29 | 41.86534 | 100.59385 | 34048 ft | 470 kts | 274° |
| 2026-05-04 04:30 | 41.86719 | 100.50615 | 34048 ft | 470 kts | 274° |
| 2026-05-04 04:30 | 41.86890 | 100.41844 | 34048 ft | 470 kts | 274° |
| 2026-05-04 04:31 | 41.87051 | 100.33102 | 34048 ft | 469 kts | 274° |
| 2026-05-04 04:31 | 41.87205 | 100.24359 | 34048 ft | 468 kts | 274° |
| 2026-05-04 04:32 | 41.87351 | 100.15622 | 34048 ft | 469 kts | 274° |
| 2026-05-04 04:32 | 41.87491 | 100.06884 | 34048 ft | 468 kts | 273° |
| 2026-05-04 04:33 | 41.87624 | 99.98150 | 34048 ft | 468 kts | 273° |
| 2026-05-04 04:33 | 41.87750 | 99.89414 | 34048 ft | 468 kts | 273° |
| 2026-05-04 04:34 | 41.87870 | 99.80682 | 34048 ft | 468 kts | 273° |
| 2026-05-04 04:34 | 41.87983 | 99.71932 | 34048 ft | 469 kts | 273° |
| 2026-05-04 04:35 | 41.88089 | 99.63242 | 34048 ft | 469 kts | 273° |
| 2026-05-04 04:35 | 41.88190 | 99.54431 | 34049 ft | 469 kts | 273° |
| 2026-05-04 04:36 | 41.88283 | 99.45734 | 34048 ft | 469 kts | 273° |
| 2026-05-04 04:36 | 41.88369 | 99.36976 | 34048 ft | 470 kts | 273° |
| 2026-05-04 04:37 | 41.88523 | 99.19429 | 34048 ft | 470 kts | 273° |
| 2026-05-04 04:38 | 41.88590 | 99.10665 | 34048 ft | 470 kts | 273° |
| 2026-05-04 04:38 | 41.88650 | 99.01898 | 34048 ft | 470 kts | 273° |
| 2026-05-04 04:39 | 41.88703 | 98.93124 | 34041 ft | 470 kts | 273° |
| 2026-05-04 04:39 | 41.88750 | 98.84344 | 34040 ft | 470 kts | 273° |
| 2026-05-04 04:40 | 41.88790 | 98.75575 | 34040 ft | 470 kts | 273° |
| 2026-05-04 04:40 | 41.88824 | 98.66812 | 34040 ft | 470 kts | 273° |
| 2026-05-04 04:41 | 41.88851 | 98.58045 | 34040 ft | 470 kts | 273° |
| 2026-05-04 04:41 | 41.88871 | 98.49273 | 34040 ft | 470 kts | 273° |
| 2026-05-04 04:42 | 41.88884 | 98.40561 | 34040 ft | 469 kts | 273° |
| 2026-05-04 04:42 | 41.88891 | 98.31809 | 34040 ft | 469 kts | 272° |
| 2026-05-04 04:43 | 41.88891 | 98.23062 | 34040 ft | 469 kts | 272° |
| 2026-05-04 04:43 | 41.88885 | 98.14308 | 34040 ft | 469 kts | 272° |
| 2026-05-04 04:44 | 41.88872 | 98.05554 | 34040 ft | 469 kts | 272° |
| 2026-05-04 04:44 | 41.88852 | 97.96801 | 34040 ft | 469 kts | 272° |
| 2026-05-04 04:45 | 41.88826 | 97.88045 | 34040 ft | 469 kts | 272° |
| 2026-05-04 04:47 | 41.88681 | 97.57429 | 34039 ft | 468 kts | 272° |
| 2026-05-04 04:47 | 41.88626 | 97.48696 | 34041 ft | 468 kts | 272° |
| 2026-05-04 04:48 | 41.88563 | 97.39985 | 34040 ft | 467 kts | 272° |
| 2026-05-04 04:49 | 41.88379 | 97.18310 | 34040 ft | 465 kts | 272° |
| 2026-05-04 04:49 | 41.88294 | 97.09651 | 34039 ft | 464 kts | 272° |
| 2026-05-04 04:50 | 41.88203 | 97.01008 | 34039 ft | 463 kts | 272° |
| 2026-05-04 04:50 | 41.88105 | 96.92390 | 34039 ft | 461 kts | 272° |
| 2026-05-04 04:51 | 41.88001 | 96.83788 | 34039 ft | 460 kts | 272° |
| 2026-05-04 04:51 | 41.87892 | 96.75208 | 34039 ft | 459 kts | 272° |
| 2026-05-04 04:52 | 41.87782 | 96.66650 | 34039 ft | 458 kts | 272° |
| 2026-05-04 04:52 | 41.87697 | 96.58108 | 34039 ft | 457 kts | 272° |
| 2026-05-04 04:53 | 41.87561 | 96.49584 | 34037 ft | 457 kts | 272° |
| 2026-05-04 04:53 | 41.87412 | 96.41077 | 34039 ft | 456 kts | 271° |
| 2026-05-04 04:54 | 41.87261 | 96.32633 | 34039 ft | 456 kts | 271° |
| 2026-05-04 04:54 | 41.87109 | 96.24141 | 34039 ft | 455 kts | 271° |
| 2026-05-04 04:55 | 41.87045 | 96.15667 | 34039 ft | 454 kts | 272° |
| 2026-05-04 04:55 | 41.86994 | 96.07198 | 34038 ft | 454 kts | 272° |
| 2026-05-04 04:56 | 41.86928 | 95.98732 | 34039 ft | 454 kts | 272° |
| 2026-05-04 04:56 | 41.86854 | 95.90269 | 34038 ft | 454 kts | 272° |
| 2026-05-04 04:57 | 41.86775 | 95.81798 | 34038 ft | 454 kts | 272° |
| 2026-05-04 04:57 | 41.86729 | 95.73334 | 34039 ft | 454 kts | 272° |
| 2026-05-04 04:58 | 41.86680 | 95.64876 | 34038 ft | 453 kts | 272° |
| 2026-05-04 04:58 | 41.86641 | 95.56423 | 34038 ft | 453 kts | 272° |
| 2026-05-04 04:59 | 41.86553 | 95.48033 | 34038 ft | 453 kts | 272° |
| 2026-05-04 04:59 | 41.86442 | 95.39597 | 34038 ft | 452 kts | 272° |
| 2026-05-04 05:00 | 41.86326 | 95.31163 | 34038 ft | 452 kts | 272° |
| 2026-05-04 05:00 | 41.86653 | 95.22816 | 34041 ft | 446 kts | 288° |
| 2026-05-04 05:01 | 41.87897 | 95.19028 | 34048 ft | 444 kts | 301° |
| 2026-05-04 05:01 | 41.91352 | 95.12172 | 34037 ft | 443 kts | 308° |
| 2026-05-04 05:02 | 41.95305 | 95.05852 | 34038 ft | 441 kts | 310° |
| 2026-05-04 05:02 | 41.99375 | 94.99682 | 34035 ft | 441 kts | 310° |
| 2026-05-04 05:03 | 42.03431 | 94.93476 | 34034 ft | 443 kts | 310° |
| 2026-05-04 05:04 | 42.11567 | 94.81007 | 34033 ft | 442 kts | 310° |
| 2026-05-04 05:04 | 42.15633 | 94.74790 | 34033 ft | 442 kts | 310° |
| 2026-05-04 05:06 | 42.31712 | 94.49896 | 34031 ft | 439 kts | 309° |
| 2026-05-04 05:07 | 42.35716 | 94.43659 | 34030 ft | 439 kts | 309° |
| 2026-05-04 05:07 | 42.39721 | 94.37403 | 34216 ft | 440 kts | 309° |
| 2026-05-04 05:09 | 42.55650 | 94.12399 | 35797 ft | 438 kts | 309° |
| 2026-05-04 05:09 | 42.57634 | 94.09269 | 35938 ft | 438 kts | 309° |
| 2026-05-04 05:10 | 42.61601 | 94.03002 | 36029 ft | 438 kts | 309° |
| 2026-05-04 05:10 | 42.65588 | 93.96741 | 36028 ft | 438 kts | 309° |
| 2026-05-04 05:11 | 42.69549 | 93.90473 | 36029 ft | 437 kts | 309° |
| 2026-05-04 05:11 | 42.73499 | 93.84172 | 36029 ft | 438 kts | 308° |
| 2026-05-04 05:12 | 42.77446 | 93.77858 | 36029 ft | 438 kts | 308° |
| 2026-05-04 05:12 | 42.81400 | 93.71527 | 36029 ft | 439 kts | 308° |
| 2026-05-04 05:13 | 42.84674 | 93.64644 | 36023 ft | 437 kts | 294° |
| 2026-05-04 05:13 | 42.86906 | 93.56936 | 36042 ft | 437 kts | 289° |
| 2026-05-04 05:14 | 42.88817 | 93.49069 | 36043 ft | 437 kts | 288° |
| 2026-05-04 05:14 | 42.90724 | 93.41185 | 36044 ft | 438 kts | 288° |
| 2026-05-04 05:15 | 42.92646 | 93.33298 | 36043 ft | 438 kts | 288° |
| 2026-05-04 05:15 | 42.94569 | 93.25419 | 36043 ft | 438 kts | 288° |
| 2026-05-04 05:16 | 42.96533 | 93.17552 | 36043 ft | 438 kts | 289° |
| 2026-05-04 05:16 | 42.98171 | 93.11019 | 36042 ft | 438 kts | 289° |
| 2026-05-04 05:17 | 43.00116 | 93.03151 | 36043 ft | 437 kts | 288° |
| 2026-05-04 05:17 | 43.02044 | 92.95282 | 36042 ft | 437 kts | 288° |
| 2026-05-04 05:18 | 43.03963 | 92.87406 | 36042 ft | 437 kts | 288° |
| 2026-05-04 05:18 | 43.05876 | 92.79527 | 36042 ft | 437 kts | 288° |
| 2026-05-04 05:19 | 43.07781 | 92.71647 | 36064 ft | 436 kts | 288° |
| 2026-05-04 05:19 | 43.09679 | 92.63768 | 36069 ft | 436 kts | 288° |
| 2026-05-04 05:20 | 43.11570 | 92.55890 | 36068 ft | 436 kts | 288° |
| 2026-05-04 05:20 | 43.13456 | 92.48009 | 36067 ft | 436 kts | 288° |
| 2026-05-04 05:21 | 43.15338 | 92.40114 | 36067 ft | 436 kts | 288° |
| 2026-05-04 05:21 | 43.17210 | 92.32234 | 36065 ft | 435 kts | 288° |
| 2026-05-04 05:22 | 43.19063 | 92.24407 | 36064 ft | 435 kts | 288° |
| 2026-05-04 05:22 | 43.20935 | 92.16469 | 36063 ft | 435 kts | 288° |
| 2026-05-04 05:23 | 43.22777 | 92.08636 | 36062 ft | 434 kts | 288° |
| 2026-05-04 05:23 | 43.24622 | 92.00759 | 36062 ft | 434 kts | 288° |
| 2026-05-04 05:24 | 43.26463 | 91.92872 | 36061 ft | 433 kts | 288° |
| 2026-05-04 05:24 | 43.28293 | 91.85004 | 36059 ft | 432 kts | 288° |
| 2026-05-04 05:25 | 43.30119 | 91.77129 | 36059 ft | 433 kts | 287° |
| 2026-05-04 05:25 | 43.31975 | 91.69264 | 36059 ft | 433 kts | 288° |
| 2026-05-04 05:26 | 43.33790 | 91.61388 | 36054 ft | 433 kts | 287° |
| 2026-05-04 05:26 | 43.35586 | 91.53492 | 36049 ft | 433 kts | 287° |
| 2026-05-04 05:28 | 43.42724 | 91.21878 | 36050 ft | 433 kts | 287° |
| 2026-05-04 05:29 | 43.44486 | 91.13963 | 36050 ft | 432 kts | 287° |
| 2026-05-04 05:29 | 43.46239 | 91.06056 | 36049 ft | 432 kts | 287° |
| 2026-05-04 05:31 | 43.53263 | 90.74518 | 36057 ft | 431 kts | 287° |
| 2026-05-04 05:32 | 43.55006 | 90.66627 | 36055 ft | 430 kts | 286° |
| 2026-05-04 05:33 | 43.57596 | 90.54794 | 36054 ft | 430 kts | 286° |
| 2026-05-04 05:33 | 43.59342 | 90.46913 | 36052 ft | 430 kts | 287° |
| 2026-05-04 05:34 | 43.61070 | 90.39021 | 36057 ft | 429 kts | 286° |
| 2026-05-04 05:34 | 43.62762 | 90.31138 | 36043 ft | 428 kts | 286° |
| 2026-05-04 05:35 | 43.64444 | 90.23259 | 36035 ft | 428 kts | 286° |
| 2026-05-04 05:35 | 43.66121 | 90.15373 | 36028 ft | 429 kts | 285° |
| 2026-05-04 05:36 | 43.67798 | 90.07506 | 36046 ft | 429 kts | 286° |
| 2026-05-04 05:36 | 43.69586 | 89.99625 | 36061 ft | 429 kts | 287° |
| 2026-05-04 05:37 | 43.71400 | 89.91779 | 36046 ft | 428 kts | 287° |
| 2026-05-04 05:37 | 43.73203 | 89.83981 | 36048 ft | 426 kts | 287° |
| 2026-05-04 05:38 | 43.75853 | 89.72186 | 36029 ft | 429 kts | 287° |
| 2026-05-04 05:38 | 43.77606 | 89.64331 | 36058 ft | 428 kts | 286° |
| 2026-05-04 05:39 | 43.80232 | 89.52542 | 36003 ft | 428 kts | 286° |
| 2026-05-04 05:40 | 43.82945 | 89.40738 | 36014 ft | 429 kts | 287° |
| 2026-05-04 05:40 | 43.84744 | 89.32915 | 36013 ft | 429 kts | 287° |
| 2026-05-04 05:41 | 43.86550 | 89.25022 | 36013 ft | 430 kts | 287° |
| 2026-05-04 05:41 | 43.88423 | 89.17137 | 36012 ft | 430 kts | 287° |
| 2026-05-04 05:42 | 43.90240 | 89.09233 | 36013 ft | 430 kts | 286° |
| 2026-05-04 05:42 | 43.92031 | 89.01312 | 36013 ft | 430 kts | 286° |
| 2026-05-04 05:43 | 43.93815 | 88.93382 | 36012 ft | 430 kts | 286° |
| 2026-05-04 05:45 | 44.01450 | 88.61797 | 36010 ft | 432 kts | 287° |
| 2026-05-04 05:47 | 44.09449 | 88.30271 | 36008 ft | 433 kts | 287° |
| 2026-05-04 05:47 | 44.11417 | 88.22356 | 36008 ft | 433 kts | 287° |
| 2026-05-04 05:48 | 44.13370 | 88.14436 | 36008 ft | 433 kts | 287° |
| 2026-05-04 05:48 | 44.15304 | 88.06567 | 36007 ft | 432 kts | 286° |
| 2026-05-04 05:49 | 44.15858 | 88.02487 | 36013 ft | 429 kts | 270° |
| 2026-05-04 05:49 | 44.15486 | 87.98371 | 36006 ft | 431 kts | 254° |
| 2026-05-04 05:49 | 44.12859 | 87.90815 | 36006 ft | 437 kts | 242° |
| 2026-05-04 05:51 | 43.98353 | 87.63385 | 36006 ft | 442 kts | 237° |
| 2026-05-04 05:52 | 43.94629 | 87.56602 | 36006 ft | 441 kts | 237° |
| 2026-05-04 05:52 | 43.90951 | 87.49802 | 36006 ft | 440 kts | 239° |
| 2026-05-04 05:54 | 43.77759 | 87.21315 | 36006 ft | 439 kts | 240° |
| 2026-05-04 05:55 | 43.74435 | 87.14213 | 36006 ft | 440 kts | 240° |
| 2026-05-04 05:55 | 43.71123 | 87.07122 | 36006 ft | 439 kts | 240° |
| 2026-05-04 05:56 | 43.67809 | 87.00017 | 36007 ft | 440 kts | 240° |
| 2026-05-04 05:56 | 43.64463 | 86.92936 | 36007 ft | 440 kts | 239° |
| 2026-05-04 05:57 | 43.61133 | 86.85919 | 36008 ft | 440 kts | 239° |
| 2026-05-04 05:57 | 43.57774 | 86.78854 | 36008 ft | 440 kts | 239° |
| 2026-05-04 05:58 | 43.55446 | 86.71150 | 36019 ft | 436 kts | 265° |
| 2026-05-04 05:58 | 43.55286 | 86.62784 | 36013 ft | 438 kts | 274° |
| 2026-05-04 05:59 | 43.56249 | 86.54478 | 36009 ft | 439 kts | 278° |
| 2026-05-04 05:59 | 43.57244 | 86.46216 | 36011 ft | 440 kts | 277° |
| 2026-05-04 06:00 | 43.58147 | 86.37870 | 36012 ft | 440 kts | 276° |
| 2026-05-04 06:00 | 43.59019 | 86.29512 | 36011 ft | 440 kts | 276° |
| 2026-05-04 06:01 | 43.59884 | 86.21156 | 36013 ft | 440 kts | 276° |
| 2026-05-04 06:03 | 43.63458 | 85.87657 | 36018 ft | 441 kts | 276° |
| 2026-05-04 06:05 | 43.66560 | 85.49730 | 36025 ft | 442 kts | 275° |
| 2026-05-04 06:06 | 43.67125 | 85.42708 | 36026 ft | 442 kts | 274° |
| 2026-05-04 06:06 | 43.67761 | 85.34253 | 36027 ft | 443 kts | 274° |
| 2026-05-04 06:07 | 43.68386 | 85.25780 | 36029 ft | 444 kts | 274° |
| 2026-05-04 06:07 | 43.69009 | 85.17290 | 36030 ft | 444 kts | 273° |
| 2026-05-04 06:07 | 43.68929 | 85.13056 | 36038 ft | 441 kts | 258° |
| 2026-05-04 06:08 | 43.67997 | 85.09034 | 36043 ft | 441 kts | 248° |
| 2026-05-04 06:08 | 43.65256 | 85.01436 | 36036 ft | 443 kts | 240° |
| 2026-05-04 06:09 | 43.61943 | 84.94267 | 36042 ft | 442 kts | 238° |
| 2026-05-04 06:11 | 43.48650 | 84.66063 | 36046 ft | 439 kts | 239° |
| 2026-05-04 06:13 | 43.35804 | 84.37646 | 36067 ft | 436 kts | 257° |
| 2026-05-04 06:14 | 43.36663 | 84.12601 | 36066 ft | 443 kts | 275° |
| 2026-05-04 06:14 | 43.37050 | 84.08401 | 36067 ft | 443 kts | 274° |
| 2026-05-04 06:15 | 43.37796 | 84.00005 | 36069 ft | 442 kts | 274° |
| 2026-05-04 06:15 | 43.38527 | 83.91596 | 36072 ft | 444 kts | 274° |
| 2026-05-04 06:16 | 43.39301 | 83.83173 | 36075 ft | 444 kts | 274° |
| 2026-05-04 06:16 | 43.40093 | 83.74752 | 36078 ft | 444 kts | 274° |
| 2026-05-04 06:17 | 43.40818 | 83.66316 | 36080 ft | 444 kts | 274° |
| 2026-05-04 06:17 | 43.41519 | 83.57881 | 36082 ft | 444 kts | 274° |
| 2026-05-04 06:18 | 43.42215 | 83.49437 | 36083 ft | 444 kts | 274° |
| 2026-05-04 06:20 | 43.43976 | 83.15522 | 36093 ft | 444 kts | 270° |
| 2026-05-04 06:21 | 43.44660 | 82.94248 | 36100 ft | 445 kts | 270° |
| 2026-05-04 06:22 | 43.44972 | 82.85731 | 36102 ft | 446 kts | 270° |
| 2026-05-04 06:25 | 43.46868 | 82.25975 | 36118 ft | 447 kts | 270° |
| 2026-05-04 06:26 | 43.47106 | 82.17432 | 36121 ft | 447 kts | 270° |
| 2026-05-04 06:26 | 43.47371 | 82.08882 | 36123 ft | 447 kts | 270° |
| 2026-05-04 06:27 | 43.47913 | 81.87483 | 36128 ft | 448 kts | 269° |
| 2026-05-04 06:28 | 43.48110 | 81.78898 | 36129 ft | 449 kts | 269° |
| 2026-05-04 06:28 | 43.48307 | 81.70304 | 36131 ft | 449 kts | 269° |
| 2026-05-04 06:29 | 43.48487 | 81.61711 | 36136 ft | 449 kts | 269° |
| 2026-05-04 06:29 | 43.48652 | 81.53110 | 36134 ft | 449 kts | 269° |
| 2026-05-04 06:30 | 43.48810 | 81.44512 | 36136 ft | 449 kts | 269° |
| 2026-05-04 06:30 | 43.48962 | 81.35903 | 36137 ft | 450 kts | 269° |
| 2026-05-04 06:31 | 43.49110 | 81.27280 | 36139 ft | 451 kts | 269° |
| 2026-05-04 06:31 | 43.49281 | 81.18645 | 36141 ft | 451 kts | 270° |
| 2026-05-04 06:33 | 43.49889 | 80.84029 | 36145 ft | 452 kts | 269° |
| 2026-05-04 06:34 | 43.50004 | 80.75360 | 36147 ft | 453 kts | 269° |
| 2026-05-04 06:34 | 43.50226 | 80.66682 | 36217 ft | 454 kts | 271° |
| 2026-05-04 06:35 | 43.50412 | 80.62341 | 36399 ft | 454 kts | 271° |
| 2026-05-04 06:36 | 43.51522 | 80.32081 | 37531 ft | 450 kts | 270° |
| 2026-05-04 06:37 | 43.51671 | 80.27775 | 37659 ft | 449 kts | 270° |
| 2026-05-04 06:37 | 43.51844 | 80.23475 | 37765 ft | 450 kts | 271° |
| 2026-05-04 06:37 | 43.52049 | 80.19179 | 37870 ft | 449 kts | 271° |
| 2026-05-04 06:37 | 43.52221 | 80.14880 | 37953 ft | 449 kts | 270° |
| 2026-05-04 06:38 | 43.52512 | 80.06285 | 38071 ft | 448 kts | 270° |
| 2026-05-04 06:40 | 43.53574 | 79.71912 | 38055 ft | 451 kts | 270° |
| 2026-05-04 06:40 | 43.53874 | 79.63282 | 38055 ft | 451 kts | 270° |
| 2026-05-04 06:41 | 43.54136 | 79.54646 | 38054 ft | 451 kts | 269° |
| 2026-05-04 06:41 | 43.54371 | 79.46003 | 38055 ft | 451 kts | 269° |
| 2026-05-04 06:42 | 43.54598 | 79.37361 | 38055 ft | 451 kts | 269° |
| 2026-05-04 06:44 | 43.55455 | 79.02706 | 38057 ft | 453 kts | 269° |
| 2026-05-04 06:44 | 43.55648 | 78.94012 | 38058 ft | 454 kts | 269° |
| 2026-05-04 06:45 | 43.55835 | 78.85305 | 38058 ft | 454 kts | 269° |
| 2026-05-04 06:45 | 43.56024 | 78.76599 | 38058 ft | 454 kts | 269° |
| 2026-05-04 06:46 | 43.56265 | 78.67892 | 38060 ft | 455 kts | 269° |
| 2026-05-04 06:46 | 43.56464 | 78.59176 | 38061 ft | 455 kts | 269° |
| 2026-05-04 06:48 | 43.57160 | 78.24303 | 38068 ft | 455 kts | 269° |
| 2026-05-04 06:50 | 43.57710 | 77.90858 | 38072 ft | 456 kts | 269° |
| 2026-05-04 06:51 | 43.57857 | 77.82108 | 38074 ft | 456 kts | 269° |
| 2026-05-04 06:51 | 43.57966 | 77.73362 | 38075 ft | 456 kts | 268° |
| 2026-05-04 06:52 | 43.58066 | 77.64617 | 38077 ft | 456 kts | 268° |
| 2026-05-04 06:52 | 43.58164 | 77.55857 | 38077 ft | 457 kts | 268° |
| 2026-05-04 06:53 | 43.58309 | 77.47095 | 38080 ft | 458 kts | 270° |
| 2026-05-04 06:53 | 43.58676 | 77.38316 | 38080 ft | 459 kts | 270° |
| 2026-05-04 06:54 | 43.58976 | 77.29529 | 38080 ft | 459 kts | 270° |
| 2026-05-04 06:54 | 43.59263 | 77.20727 | 38081 ft | 460 kts | 270° |
| 2026-05-04 06:55 | 43.59504 | 77.11906 | 38081 ft | 460 kts | 268° |
| 2026-05-04 06:55 | 43.59553 | 77.03081 | 38081 ft | 460 kts | 268° |
| 2026-05-04 06:57 | 43.59881 | 76.67730 | 38085 ft | 461 kts | 268° |
| 2026-05-04 06:58 | 43.59924 | 76.58885 | 38085 ft | 462 kts | 268° |
| 2026-05-04 06:58 | 43.59952 | 76.50018 | 38086 ft | 462 kts | 268° |
| 2026-05-04 06:59 | 43.59977 | 76.41161 | 38087 ft | 462 kts | 268° |
| 2026-05-04 06:59 | 43.60009 | 76.32300 | 38087 ft | 462 kts | 269° |
| 2026-05-04 07:01 | 43.61635 | 75.96862 | 38095 ft | 464 kts | 271° |
| 2026-05-04 07:02 | 43.62110 | 75.87989 | 38099 ft | 464 kts | 271° |
| 2026-05-04 07:02 | 43.62503 | 75.79097 | 38102 ft | 464 kts | 271° |
| 2026-05-04 07:03 | 43.62874 | 75.70199 | 38105 ft | 464 kts | 271° |
| 2026-05-04 07:03 | 43.63240 | 75.61303 | 38108 ft | 464 kts | 271° |
| 2026-05-04 07:04 | 43.63606 | 75.52406 | 38111 ft | 465 kts | 271° |
| 2026-05-04 07:04 | 43.63960 | 75.43498 | 38114 ft | 465 kts | 270° |
| 2026-05-04 07:05 | 43.64301 | 75.34585 | 38117 ft | 465 kts | 270° |
| 2026-05-04 07:05 | 43.64634 | 75.25666 | 38120 ft | 465 kts | 270° |
| 2026-05-04 07:06 | 43.65121 | 75.12264 | 38123 ft | 466 kts | 270° |
| 2026-05-04 07:07 | 43.65456 | 75.03317 | 38128 ft | 467 kts | 271° |
| 2026-05-04 07:09 | 43.66792 | 74.67548 | 38117 ft | 468 kts | 271° |
| 2026-05-04 07:09 | 43.67130 | 74.58583 | 38111 ft | 467 kts | 271° |
| 2026-05-04 07:10 | 43.67428 | 74.49633 | 38114 ft | 467 kts | 270° |
| 2026-05-04 07:12 | 43.68525 | 74.13767 | 38115 ft | 467 kts | 271° |
| 2026-05-04 07:12 | 43.68805 | 74.04813 | 38116 ft | 467 kts | 270° |
| 2026-05-04 07:13 | 43.69051 | 73.95860 | 38116 ft | 467 kts | 270° |
| 2026-05-04 07:13 | 43.69290 | 73.86884 | 38116 ft | 467 kts | 270° |
| 2026-05-04 07:14 | 43.69180 | 73.64483 | 38117 ft | 466 kts | 264° |
| 2026-05-04 07:15 | 43.68642 | 73.55552 | 38117 ft | 466 kts | 264° |
| 2026-05-04 07:15 | 43.68130 | 73.46623 | 38121 ft | 467 kts | 264° |
| 2026-05-04 07:16 | 43.67624 | 73.37667 | 38118 ft | 468 kts | 264° |
| 2026-05-04 07:16 | 43.67118 | 73.28709 | 38117 ft | 468 kts | 264° |
| 2026-05-04 07:17 | 43.66675 | 73.19735 | 38118 ft | 468 kts | 265° |
| 2026-05-04 07:17 | 43.66211 | 73.10754 | 38118 ft | 469 kts | 264° |
| 2026-05-04 07:18 | 43.65720 | 73.01764 | 38116 ft | 470 kts | 264° |
| 2026-05-04 07:18 | 43.65217 | 72.92830 | 38118 ft | 470 kts | 264° |
| 2026-05-04 07:19 | 43.64701 | 72.83822 | 38118 ft | 471 kts | 264° |
| 2026-05-04 07:19 | 43.64176 | 72.74806 | 38118 ft | 471 kts | 264° |
| 2026-05-04 07:20 | 43.63644 | 72.65782 | 38117 ft | 471 kts | 264° |
| 2026-05-04 07:20 | 43.63104 | 72.56767 | 38117 ft | 471 kts | 264° |
| 2026-05-04 07:22 | 43.60870 | 72.20690 | 38115 ft | 474 kts | 264° |
| 2026-05-04 07:23 | 43.60293 | 72.11650 | 38115 ft | 474 kts | 264° |
| 2026-05-04 07:23 | 43.59705 | 72.02597 | 38105 ft | 472 kts | 263° |
| 2026-05-04 07:24 | 43.59114 | 71.93577 | 38105 ft | 471 kts | 264° |
| 2026-05-04 07:24 | 43.58517 | 71.84555 | 38117 ft | 473 kts | 264° |
| 2026-05-04 07:26 | 43.56061 | 71.48445 | 38119 ft | 475 kts | 263° |
| 2026-05-04 07:27 | 43.55423 | 71.39385 | 38120 ft | 474 kts | 263° |
| 2026-05-04 07:27 | 43.54781 | 71.30331 | 38109 ft | 475 kts | 264° |
| 2026-05-04 07:28 | 43.54172 | 71.21259 | 38110 ft | 476 kts | 263° |
| 2026-05-04 07:28 | 43.53511 | 71.12246 | 38110 ft | 476 kts | 263° |
| 2026-05-04 07:29 | 43.52828 | 71.03175 | 38110 ft | 476 kts | 263° |
| 2026-05-04 07:29 | 43.52140 | 70.94091 | 38110 ft | 477 kts | 263° |
| 2026-05-04 07:30 | 43.51451 | 70.84996 | 38105 ft | 478 kts | 263° |
| 2026-05-04 07:30 | 43.50739 | 70.75903 | 38107 ft | 477 kts | 263° |
| 2026-05-04 07:31 | 43.50014 | 70.66810 | 38108 ft | 479 kts | 263° |
| 2026-05-04 07:33 | 43.47103 | 70.30362 | 38102 ft | 480 kts | 263° |
| 2026-05-04 07:33 | 43.46374 | 70.21220 | 38094 ft | 481 kts | 263° |
| 2026-05-04 07:34 | 43.45664 | 70.12084 | 38099 ft | 480 kts | 263° |
| 2026-05-04 07:34 | 43.44900 | 70.02959 | 38098 ft | 480 kts | 263° |
| 2026-05-04 07:35 | 43.44115 | 69.93841 | 38096 ft | 480 kts | 263° |
| 2026-05-04 07:35 | 43.43324 | 69.84715 | 38096 ft | 481 kts | 263° |
| 2026-05-04 07:36 | 43.42665 | 69.77123 | 38095 ft | 481 kts | 263° |
| 2026-05-04 07:38 | 43.39619 | 69.40612 | 38083 ft | 480 kts | 263° |
| 2026-05-04 07:38 | 43.38819 | 69.31493 | 38083 ft | 481 kts | 263° |
| 2026-05-04 07:39 | 43.38016 | 69.22378 | 38082 ft | 480 kts | 263° |
| 2026-05-04 07:39 | 43.37229 | 69.13267 | 38083 ft | 480 kts | 264° |
| 2026-05-04 07:40 | 43.36470 | 69.04144 | 38082 ft | 481 kts | 264° |
| 2026-05-04 07:40 | 43.35757 | 68.95010 | 38083 ft | 481 kts | 264° |
| 2026-05-04 07:41 | 43.34993 | 68.85874 | 38082 ft | 481 kts | 264° |
| 2026-05-04 07:41 | 43.34202 | 68.76739 | 38083 ft | 481 kts | 264° |
| 2026-05-04 07:42 | 43.33405 | 68.67617 | 38082 ft | 481 kts | 264° |
| 2026-05-04 07:42 | 43.32608 | 68.58494 | 38083 ft | 481 kts | 264° |
| 2026-05-04 07:43 | 43.31581 | 68.49432 | 38083 ft | 481 kts | 261° |
| 2026-05-04 07:43 | 43.30458 | 68.40430 | 38082 ft | 481 kts | 261° |
| 2026-05-04 07:44 | 43.29109 | 68.31366 | 38083 ft | 482 kts | 257° |
| 2026-05-04 07:44 | 43.27411 | 68.22528 | 38082 ft | 482 kts | 256° |
| 2026-05-04 07:45 | 43.25783 | 68.13595 | 38081 ft | 482 kts | 257° |
| 2026-05-04 07:45 | 43.24119 | 68.04688 | 38082 ft | 483 kts | 256° |
| 2026-05-04 07:46 | 43.22437 | 67.95777 | 38081 ft | 482 kts | 256° |
| 2026-05-04 07:46 | 43.20754 | 67.86885 | 38081 ft | 482 kts | 257° |
| 2026-05-04 07:47 | 43.19074 | 67.77999 | 38080 ft | 481 kts | 257° |
| 2026-05-04 07:49 | 43.12298 | 67.42535 | 38078 ft | 481 kts | 256° |
| 2026-05-04 07:49 | 43.10579 | 67.33693 | 38090 ft | 480 kts | 256° |
| 2026-05-04 07:50 | 43.08854 | 67.24859 | 38069 ft | 480 kts | 256° |
| 2026-05-04 07:50 | 43.07170 | 67.16052 | 38093 ft | 478 kts | 257° |
| 2026-05-04 07:51 | 43.05492 | 67.07251 | 38084 ft | 479 kts | 256° |
| 2026-05-04 07:51 | 43.03745 | 66.98444 | 38067 ft | 479 kts | 256° |
| 2026-05-04 07:52 | 43.01999 | 66.89672 | 38081 ft | 477 kts | 256° |
| 2026-05-04 07:52 | 43.00249 | 66.80912 | 38119 ft | 478 kts | 257° |
| 2026-05-04 07:54 | 42.93232 | 66.45903 | 38070 ft | 477 kts | 257° |
| 2026-05-04 07:55 | 42.91474 | 66.37180 | 38071 ft | 477 kts | 256° |
| 2026-05-04 07:55 | 42.89690 | 66.28454 | 38068 ft | 478 kts | 256° |
| 2026-05-04 07:56 | 42.87902 | 66.19711 | 38069 ft | 478 kts | 256° |
| 2026-05-04 07:56 | 42.86111 | 66.11001 | 38087 ft | 477 kts | 256° |
| 2026-05-04 07:57 | 42.84325 | 66.02284 | 38089 ft | 477 kts | 256° |
| 2026-05-04 07:57 | 42.82512 | 65.93588 | 38091 ft | 475 kts | 256° |
| 2026-05-04 07:58 | 42.80690 | 65.84932 | 38054 ft | 476 kts | 256° |
| 2026-05-04 07:58 | 42.78864 | 65.76257 | 38039 ft | 476 kts | 256° |
| 2026-05-04 07:59 | 42.77032 | 65.67608 | 38066 ft | 474 kts | 256° |
| 2026-05-04 07:59 | 42.75189 | 65.58967 | 38076 ft | 475 kts | 256° |
| 2026-05-04 08:00 | 42.73331 | 65.50339 | 38049 ft | 476 kts | 256° |
| 2026-05-04 08:02 | 42.65950 | 65.15807 | 38052 ft | 475 kts | 256° |
| 2026-05-04 08:02 | 42.64089 | 65.07188 | 38051 ft | 475 kts | 256° |
| 2026-05-04 08:03 | 42.62216 | 64.98576 | 38051 ft | 475 kts | 256° |
| 2026-05-04 08:03 | 42.60338 | 64.89980 | 38052 ft | 475 kts | 256° |
| 2026-05-04 08:04 | 42.58454 | 64.81391 | 38057 ft | 475 kts | 256° |
| 2026-05-04 08:04 | 42.56565 | 64.72820 | 38053 ft | 474 kts | 256° |
| 2026-05-04 08:05 | 42.54673 | 64.64257 | 38053 ft | 474 kts | 256° |
| 2026-05-04 08:05 | 42.52824 | 64.55744 | 38053 ft | 474 kts | 256° |
| 2026-05-04 08:06 | 42.50911 | 64.47195 | 38053 ft | 473 kts | 256° |
| 2026-05-04 08:06 | 42.48987 | 64.38666 | 38053 ft | 473 kts | 256° |
| 2026-05-04 08:08 | 42.41318 | 64.04598 | 38053 ft | 473 kts | 256° |
| 2026-05-04 08:11 | 42.32478 | 63.66467 | 38053 ft | 472 kts | 256° |
| 2026-05-04 08:11 | 42.29516 | 63.53800 | 38053 ft | 471 kts | 256° |
| 2026-05-04 08:12 | 42.27580 | 63.45348 | 38053 ft | 471 kts | 256° |
| 2026-05-04 08:12 | 42.25637 | 63.36906 | 38053 ft | 470 kts | 256° |
| 2026-05-04 08:13 | 42.23663 | 63.28497 | 38054 ft | 470 kts | 255° |
| 2026-05-04 08:13 | 42.21673 | 63.20159 | 38053 ft | 470 kts | 255° |
| 2026-05-04 08:14 | 42.19653 | 63.11729 | 38054 ft | 469 kts | 255° |
| 2026-05-04 08:16 | 42.11660 | 62.78422 | 38052 ft | 466 kts | 255° |
| 2026-05-04 08:16 | 42.09658 | 62.70125 | 38053 ft | 465 kts | 255° |
| 2026-05-04 08:17 | 42.07647 | 62.61846 | 38053 ft | 465 kts | 254° |
| 2026-05-04 08:17 | 42.05627 | 62.53591 | 38053 ft | 464 kts | 254° |
| 2026-05-04 08:19 | 41.97561 | 62.20652 | 38050 ft | 464 kts | 254° |
| 2026-05-04 08:20 | 41.95517 | 62.12441 | 38053 ft | 463 kts | 254° |
| 2026-05-04 08:20 | 41.93489 | 62.04226 | 38053 ft | 463 kts | 254° |
| 2026-05-04 08:21 | 41.91456 | 61.96021 | 38049 ft | 463 kts | 254° |
| 2026-05-04 08:21 | 41.89399 | 61.87828 | 38053 ft | 463 kts | 253° |
| 2026-05-04 08:22 | 41.87350 | 61.79692 | 38053 ft | 463 kts | 253° |
| 2026-05-04 08:24 | 41.79351 | 61.48321 | 38053 ft | 463 kts | 253° |
| 2026-05-04 08:24 | 41.77267 | 61.40226 | 38054 ft | 462 kts | 253° |
| 2026-05-04 08:25 | 41.74814 | 61.30714 | 38053 ft | 462 kts | 253° |
| 2026-05-04 08:25 | 41.73111 | 61.23932 | 38053 ft | 461 kts | 253° |
| 2026-05-04 08:27 | 41.64754 | 60.91489 | 38053 ft | 461 kts | 252° |
| 2026-05-04 08:28 | 41.62627 | 60.83412 | 38053 ft | 460 kts | 252° |
| 2026-05-04 08:28 | 41.60498 | 60.75358 | 38053 ft | 459 kts | 252° |
| 2026-05-04 08:29 | 41.58371 | 60.67312 | 38053 ft | 459 kts | 252° |
| 2026-05-04 08:31 | 41.50754 | 60.34841 | 38057 ft | 458 kts | 254° |
| 2026-05-04 08:33 | 41.43065 | 60.02521 | 38052 ft | 458 kts | 254° |
| 2026-05-04 08:35 | 41.35220 | 59.70331 | 38052 ft | 456 kts | 253° |
| 2026-05-04 08:35 | 41.33821 | 59.62124 | 38053 ft | 455 kts | 262° |
| 2026-05-04 08:37 | 41.31101 | 59.32970 | 38045 ft | 453 kts | 263° |
| 2026-05-04 08:38 | 41.30293 | 59.24674 | 38048 ft | 453 kts | 263° |
| 2026-05-04 08:38 | 41.29517 | 59.16363 | 38046 ft | 452 kts | 264° |
| 2026-05-04 08:40 | 41.26307 | 58.83233 | 38040 ft | 451 kts | 263° |
| 2026-05-04 08:41 | 41.25480 | 58.74978 | 38038 ft | 450 kts | 263° |
| 2026-05-04 08:41 | 41.24648 | 58.66731 | 38036 ft | 451 kts | 263° |
| 2026-05-04 08:42 | 41.23808 | 58.58478 | 38034 ft | 451 kts | 263° |
| 2026-05-04 08:42 | 41.22978 | 58.50281 | 38032 ft | 450 kts | 263° |
| 2026-05-04 08:43 | 41.22160 | 58.42034 | 38030 ft | 450 kts | 263° |
| 2026-05-04 08:43 | 41.21296 | 58.33791 | 38030 ft | 450 kts | 263° |
| 2026-05-04 08:44 | 41.20421 | 58.25567 | 38029 ft | 450 kts | 263° |
| 2026-05-04 08:46 | 41.16880 | 57.92703 | 38021 ft | 448 kts | 262° |
| 2026-05-04 08:46 | 41.15977 | 57.84526 | 38020 ft | 447 kts | 262° |
| 2026-05-04 08:47 | 41.15068 | 57.76357 | 38018 ft | 448 kts | 262° |
| 2026-05-04 08:47 | 41.14155 | 57.68195 | 38021 ft | 447 kts | 262° |
| 2026-05-04 08:48 | 41.13270 | 57.60036 | 38014 ft | 447 kts | 263° |
| 2026-05-04 08:48 | 41.12399 | 57.51873 | 37994 ft | 447 kts | 262° |
| 2026-05-04 08:49 | 41.11498 | 57.43717 | 37988 ft | 446 kts | 262° |
| 2026-05-04 08:50 | 41.08271 | 57.15265 | 37979 ft | 445 kts | 262° |
| 2026-05-04 08:51 | 41.07336 | 57.07156 | 37976 ft | 445 kts | 262° |
| 2026-05-04 08:51 | 41.06401 | 56.99090 | 37974 ft | 446 kts | 262° |
| 2026-05-04 08:52 | 41.05469 | 56.90981 | 37971 ft | 445 kts | 263° |
| 2026-05-04 08:52 | 41.04543 | 56.82871 | 37969 ft | 445 kts | 262° |
| 2026-05-04 08:54 | 41.00718 | 56.50510 | 37962 ft | 443 kts | 265° |
| 2026-05-04 08:55 | 41.00472 | 56.42365 | 37959 ft | 443 kts | 270° |
| 2026-05-04 08:55 | 41.00435 | 56.34198 | 37958 ft | 443 kts | 269° |
| 2026-05-04 09:01 | 40.99160 | 55.48758 | 37957 ft | 442 kts | 269° |
| 2026-05-04 09:01 | 40.99004 | 55.40627 | 37939 ft | 442 kts | 269° |
| 2026-05-04 09:02 | 40.98846 | 55.32500 | 37937 ft | 442 kts | 269° |
| 2026-05-04 09:02 | 40.98772 | 55.24372 | 37937 ft | 441 kts | 269° |
| 2026-05-04 09:03 | 40.98624 | 55.16257 | 37936 ft | 441 kts | 268° |
| 2026-05-04 09:03 | 40.98445 | 55.08146 | 37936 ft | 441 kts | 268° |
| 2026-05-04 09:04 | 40.98260 | 55.00029 | 37937 ft | 441 kts | 268° |
| 2026-05-04 09:04 | 40.98076 | 54.91981 | 37935 ft | 440 kts | 268° |
| 2026-05-04 09:05 | 40.97883 | 54.83885 | 37935 ft | 440 kts | 268° |
| 2026-05-04 09:05 | 40.97674 | 54.75792 | 37934 ft | 440 kts | 268° |
| 2026-05-04 09:06 | 40.97455 | 54.67709 | 37931 ft | 439 kts | 268° |
| 2026-05-04 09:08 | 40.96585 | 54.35383 | 37933 ft | 440 kts | 268° |
| 2026-05-04 09:08 | 40.96377 | 54.27298 | 37933 ft | 440 kts | 268° |
| 2026-05-04 09:09 | 40.96151 | 54.19200 | 37929 ft | 443 kts | 267° |
| 2026-05-04 09:09 | 40.95908 | 54.11001 | 37936 ft | 448 kts | 266° |
| 2026-05-04 09:10 | 40.95656 | 54.02766 | 37935 ft | 448 kts | 266° |
| 2026-05-04 09:10 | 40.95399 | 53.94548 | 37934 ft | 447 kts | 266° |
| 2026-05-04 09:11 | 40.95136 | 53.86326 | 37934 ft | 447 kts | 266° |
| 2026-05-04 09:11 | 40.94869 | 53.78166 | 37934 ft | 447 kts | 266° |
| 2026-05-04 09:12 | 40.94639 | 53.71287 | 37934 ft | 446 kts | 266° |
| 2026-05-04 09:14 | 40.93524 | 53.38476 | 37934 ft | 447 kts | 265° |
| 2026-05-04 09:14 | 40.93208 | 53.30275 | 37934 ft | 447 kts | 265° |
| 2026-05-04 09:15 | 40.92888 | 53.22076 | 37934 ft | 447 kts | 265° |
| 2026-05-04 09:15 | 40.92567 | 53.13875 | 37934 ft | 447 kts | 265° |
| 2026-05-04 09:17 | 40.91062 | 52.77081 | 37925 ft | 446 kts | 265° |
| 2026-05-04 09:18 | 40.90696 | 52.68896 | 37925 ft | 446 kts | 265° |
| 2026-05-04 09:18 | 40.90267 | 52.60728 | 37925 ft | 445 kts | 261° |
| 2026-05-04 09:19 | 40.89185 | 52.52689 | 37923 ft | 444 kts | 257° |
| 2026-05-04 09:19 | 40.87853 | 52.44738 | 37922 ft | 443 kts | 257° |
| 2026-05-04 09:20 | 40.86554 | 52.36787 | 37921 ft | 443 kts | 257° |
| 2026-05-04 09:20 | 40.85270 | 52.28831 | 37920 ft | 442 kts | 257° |
| 2026-05-04 09:21 | 40.83990 | 52.20891 | 37919 ft | 442 kts | 257° |
| 2026-05-04 09:21 | 40.82735 | 52.12943 | 37917 ft | 442 kts | 258° |
| 2026-05-04 09:22 | 40.81494 | 52.05006 | 37916 ft | 441 kts | 257° |
| 2026-05-04 09:22 | 40.80225 | 51.97077 | 37914 ft | 441 kts | 257° |
| 2026-05-04 09:23 | 40.78964 | 51.89166 | 37912 ft | 440 kts | 257° |
| 2026-05-04 09:23 | 40.77702 | 51.81266 | 37909 ft | 440 kts | 257° |
| 2026-05-04 09:25 | 40.72565 | 51.49692 | 37901 ft | 441 kts | 261° |
| 2026-05-04 09:26 | 40.72061 | 51.41634 | 37897 ft | 442 kts | 265° |
| 2026-05-04 09:26 | 40.71793 | 51.33537 | 37895 ft | 442 kts | 265° |
| 2026-05-04 09:27 | 40.71478 | 51.25438 | 37893 ft | 442 kts | 265° |
| 2026-05-04 09:27 | 40.71139 | 51.17347 | 37890 ft | 442 kts | 265° |
| 2026-05-04 09:28 | 40.70789 | 51.09254 | 37888 ft | 442 kts | 265° |
| 2026-05-04 09:28 | 40.70464 | 51.01213 | 37887 ft | 442 kts | 265° |
| 2026-05-04 09:29 | 40.70146 | 50.93116 | 37886 ft | 442 kts | 265° |
| 2026-05-04 09:29 | 40.69806 | 50.85038 | 37884 ft | 441 kts | 265° |
| 2026-05-04 09:30 | 40.69482 | 50.76960 | 37883 ft | 441 kts | 264° |
| 2026-05-04 09:30 | 40.69109 | 50.68895 | 37881 ft | 441 kts | 264° |
| 2026-05-04 09:31 | 40.68724 | 50.60839 | 37880 ft | 440 kts | 264° |
| 2026-05-04 09:31 | 40.68336 | 50.52797 | 37879 ft | 440 kts | 264° |
| 2026-05-04 09:32 | 40.67948 | 50.44761 | 37879 ft | 439 kts | 264° |
| 2026-05-04 09:34 | 40.66317 | 50.12742 | 37877 ft | 437 kts | 264° |
| 2026-05-04 09:34 | 40.65894 | 50.04759 | 37877 ft | 437 kts | 264° |
| 2026-05-04 09:35 | 40.65479 | 49.96785 | 37876 ft | 436 kts | 264° |
| 2026-05-04 09:35 | 40.65104 | 49.88811 | 37876 ft | 436 kts | 264° |
| 2026-05-04 09:37 | 40.63427 | 49.56945 | 37876 ft | 436 kts | 263° |
| 2026-05-04 09:38 | 40.62990 | 49.48974 | 37877 ft | 437 kts | 263° |
| 2026-05-04 09:38 | 40.62529 | 49.41047 | 37877 ft | 437 kts | 263° |
| 2026-05-04 09:39 | 40.62058 | 49.33062 | 37876 ft | 438 kts | 263° |
| 2026-05-04 09:39 | 40.61585 | 49.25081 | 37877 ft | 438 kts | 263° |
| 2026-05-04 09:40 | 40.61149 | 49.17091 | 37878 ft | 438 kts | 265° |
| 2026-05-04 09:40 | 40.60999 | 49.09080 | 37879 ft | 438 kts | 266° |
| 2026-05-04 09:42 | 40.60342 | 48.77075 | 37882 ft | 436 kts | 265° |
| 2026-05-04 09:43 | 40.60195 | 48.69101 | 37884 ft | 436 kts | 265° |
| 2026-05-04 09:43 | 40.60038 | 48.61136 | 37885 ft | 435 kts | 265° |
| 2026-05-04 09:44 | 40.59894 | 48.53190 | 37886 ft | 435 kts | 265° |
| 2026-05-04 09:46 | 40.59066 | 48.21478 | 37893 ft | 432 kts | 264° |
| 2026-05-04 09:46 | 40.58858 | 48.13577 | 37895 ft | 432 kts | 264° |
| 2026-05-04 09:47 | 40.58641 | 48.05689 | 37897 ft | 431 kts | 264° |
| 2026-05-04 09:49 | 40.58984 | 47.74065 | 37901 ft | 434 kts | 268° |
| 2026-05-04 09:51 | 40.59909 | 47.46240 | 37902 ft | 436 kts | 268° |
| 2026-05-04 09:51 | 40.60130 | 47.38318 | 37903 ft | 436 kts | 268° |
| 2026-05-04 09:52 | 40.60345 | 47.30330 | 37904 ft | 437 kts | 268° |
| 2026-05-04 09:52 | 40.60560 | 47.22333 | 37905 ft | 438 kts | 268° |
| 2026-05-04 09:53 | 40.61000 | 47.14341 | 37905 ft | 440 kts | 272° |
| 2026-05-04 09:53 | 40.61836 | 47.06342 | 37905 ft | 442 kts | 273° |
| 2026-05-04 09:54 | 40.62677 | 46.98317 | 37904 ft | 443 kts | 273° |
| 2026-05-04 09:54 | 40.63490 | 46.90287 | 37902 ft | 442 kts | 273° |
| 2026-05-04 09:55 | 40.64288 | 46.82255 | 37901 ft | 443 kts | 272° |
| 2026-05-04 09:55 | 40.65078 | 46.74220 | 37900 ft | 442 kts | 273° |
| 2026-05-04 09:56 | 40.65920 | 46.66195 | 37899 ft | 442 kts | 273° |
| 2026-05-04 09:56 | 40.66737 | 46.58167 | 37905 ft | 443 kts | 273° |
| 2026-05-04 09:57 | 40.67534 | 46.50123 | 37904 ft | 442 kts | 272° |
| 2026-05-04 09:57 | 40.68188 | 46.43445 | 37905 ft | 443 kts | 272° |
| 2026-05-04 09:58 | 40.69099 | 46.34038 | 37905 ft | 443 kts | 272° |
| 2026-05-04 09:58 | 40.69742 | 46.27343 | 37905 ft | 443 kts | 272° |
| 2026-05-04 10:00 | 40.72778 | 45.95144 | 37898 ft | 443 kts | 272° |
| 2026-05-04 10:04 | 40.77461 | 45.38251 | 37893 ft | 447 kts | 269° |
| 2026-05-04 10:04 | 40.77785 | 45.30055 | 37889 ft | 447 kts | 269° |
| 2026-05-04 10:05 | 40.78123 | 45.21866 | 37883 ft | 447 kts | 269° |
| 2026-05-04 10:05 | 40.78463 | 45.13712 | 37880 ft | 449 kts | 269° |
| 2026-05-04 10:06 | 40.78802 | 45.05490 | 37874 ft | 449 kts | 269° |
| 2026-05-04 10:06 | 40.79200 | 44.97248 | 37869 ft | 450 kts | 269° |